<?xml version="1.0" encoding="UTF-8" standalone="no" ?>
<gpx xmlns="http://www.topografix.com/GPX/1/1" xmlns:xsi="http://www.w3.org/2001/XMLSchema-instance" xsi:schemaLocation="http://www.topografix.com/GPX/1/1 http://www.topografix.com/GPX/1/1/gpx.xsd" version="1.1" creator="VisuGPX - https://www.visugpx.com">
  <metadata>
    <name>Limours - Forges</name>
    <desc><![CDATA[Entraînement Limours]]></desc>
  </metadata>
  <trk>
    <name><![CDATA[Limours Forges]]></name>
    <trkseg>
      <trkpt lat="48.64758" lon="2.10542">
        <ele>171</ele>
        <time>2013-07-30T16:47:00Z</time>
      </trkpt>
      <trkpt lat="48.64743" lon="2.10521">
        <ele>171</ele>
        <time>2013-07-30T16:47:10Z</time>
      </trkpt>
      <trkpt lat="48.64741" lon="2.1051">
        <ele>171</ele>
        <time>2013-07-30T16:47:14Z</time>
      </trkpt>
      <trkpt lat="48.64742" lon="2.10501">
        <ele>171</ele>
        <time>2013-07-30T16:47:16Z</time>
      </trkpt>
      <trkpt lat="48.64744" lon="2.10493">
        <ele>171</ele>
        <time>2013-07-30T16:47:18Z</time>
      </trkpt>
      <trkpt lat="48.64758" lon="2.10462">
        <ele>171</ele>
        <time>2013-07-30T16:47:28Z</time>
      </trkpt>
      <trkpt lat="48.64762" lon="2.10441">
        <ele>171</ele>
        <time>2013-07-30T16:47:34Z</time>
      </trkpt>
      <trkpt lat="48.64767" lon="2.10428">
        <ele>171</ele>
        <time>2013-07-30T16:47:38Z</time>
      </trkpt>
      <trkpt lat="48.64772" lon="2.10422">
        <ele>171</ele>
        <time>2013-07-30T16:47:40Z</time>
      </trkpt>
      <trkpt lat="48.64776" lon="2.10411">
        <ele>171</ele>
        <time>2013-07-30T16:47:44Z</time>
      </trkpt>
      <trkpt lat="48.64777" lon="2.10397">
        <ele>171</ele>
        <time>2013-07-30T16:47:48Z</time>
      </trkpt>
      <trkpt lat="48.64774" lon="2.10394">
        <ele>171</ele>
        <time>2013-07-30T16:47:50Z</time>
      </trkpt>
      <trkpt lat="48.64734" lon="2.10378">
        <ele>170</ele>
        <time>2013-07-30T16:48:08Z</time>
      </trkpt>
      <trkpt lat="48.64714" lon="2.10373">
        <ele>169</ele>
        <time>2013-07-30T16:48:16Z</time>
      </trkpt>
      <trkpt lat="48.64696" lon="2.10368">
        <ele>169</ele>
        <time>2013-07-30T16:48:24Z</time>
      </trkpt>
      <trkpt lat="48.64684" lon="2.1037">
        <ele>169</ele>
        <time>2013-07-30T16:48:30Z</time>
      </trkpt>
      <trkpt lat="48.64668" lon="2.10367">
        <ele>169</ele>
        <time>2013-07-30T16:48:38Z</time>
      </trkpt>
      <trkpt lat="48.64654" lon="2.10362">
        <ele>170</ele>
        <time>2013-07-30T16:48:44Z</time>
      </trkpt>
      <trkpt lat="48.64641" lon="2.10354">
        <ele>170</ele>
        <time>2013-07-30T16:48:50Z</time>
      </trkpt>
      <trkpt lat="48.64628" lon="2.10343">
        <ele>170</ele>
        <time>2013-07-30T16:48:56Z</time>
      </trkpt>
      <trkpt lat="48.6461" lon="2.10331">
        <ele>168</ele>
        <time>2013-07-30T16:49:04Z</time>
      </trkpt>
      <trkpt lat="48.64588" lon="2.10319">
        <ele>169</ele>
        <time>2013-07-30T16:49:14Z</time>
      </trkpt>
      <trkpt lat="48.6456" lon="2.10304">
        <ele>167</ele>
        <time>2013-07-30T16:49:26Z</time>
      </trkpt>
      <trkpt lat="48.64547" lon="2.10297">
        <ele>167</ele>
        <time>2013-07-30T16:49:32Z</time>
      </trkpt>
      <trkpt lat="48.64531" lon="2.10289">
        <ele>167</ele>
        <time>2013-07-30T16:49:38Z</time>
      </trkpt>
      <trkpt lat="48.64504" lon="2.10271">
        <ele>166</ele>
        <time>2013-07-30T16:49:50Z</time>
      </trkpt>
      <trkpt lat="48.64486" lon="2.10251">
        <ele>164</ele>
        <time>2013-07-30T16:50:00Z</time>
      </trkpt>
      <trkpt lat="48.64483" lon="2.1025">
        <ele>162</ele>
        <time>2013-07-30T16:50:02Z</time>
      </trkpt>
      <trkpt lat="48.64471" lon="2.10249">
        <ele>161</ele>
        <time>2013-07-30T16:50:08Z</time>
      </trkpt>
      <trkpt lat="48.64448" lon="2.10237">
        <ele>159</ele>
        <time>2013-07-30T16:50:22Z</time>
      </trkpt>
      <trkpt lat="48.64429" lon="2.10228">
        <ele>158</ele>
        <time>2013-07-30T16:50:30Z</time>
      </trkpt>
      <trkpt lat="48.64418" lon="2.10227">
        <ele>158</ele>
        <time>2013-07-30T16:50:34Z</time>
      </trkpt>
      <trkpt lat="48.64403" lon="2.10219">
        <ele>153</ele>
        <time>2013-07-30T16:50:40Z</time>
      </trkpt>
      <trkpt lat="48.64377" lon="2.10212">
        <ele>151</ele>
        <time>2013-07-30T16:50:50Z</time>
      </trkpt>
      <trkpt lat="48.64359" lon="2.10203">
        <ele>150</ele>
        <time>2013-07-30T16:50:58Z</time>
      </trkpt>
      <trkpt lat="48.64345" lon="2.10199">
        <ele>149</ele>
        <time>2013-07-30T16:51:04Z</time>
      </trkpt>
      <trkpt lat="48.64334" lon="2.10198">
        <ele>149</ele>
        <time>2013-07-30T16:51:08Z</time>
      </trkpt>
      <trkpt lat="48.64325" lon="2.10196">
        <ele>144</ele>
        <time>2013-07-30T16:51:12Z</time>
      </trkpt>
      <trkpt lat="48.643" lon="2.10195">
        <ele>143</ele>
        <time>2013-07-30T16:51:20Z</time>
      </trkpt>
      <trkpt lat="48.64278" lon="2.10186">
        <ele>142</ele>
        <time>2013-07-30T16:51:28Z</time>
      </trkpt>
      <trkpt lat="48.64262" lon="2.10172">
        <ele>141</ele>
        <time>2013-07-30T16:51:34Z</time>
      </trkpt>
      <trkpt lat="48.64244" lon="2.10145">
        <ele>135</ele>
        <time>2013-07-30T16:51:46Z</time>
      </trkpt>
      <trkpt lat="48.64232" lon="2.10132">
        <ele>133</ele>
        <time>2013-07-30T16:51:50Z</time>
      </trkpt>
      <trkpt lat="48.64202" lon="2.10115">
        <ele>131</ele>
        <time>2013-07-30T16:52:00Z</time>
      </trkpt>
      <trkpt lat="48.64189" lon="2.10107">
        <ele>129</ele>
        <time>2013-07-30T16:52:06Z</time>
      </trkpt>
      <trkpt lat="48.64181" lon="2.10093">
        <ele>128</ele>
        <time>2013-07-30T16:52:12Z</time>
      </trkpt>
      <trkpt lat="48.64167" lon="2.10081">
        <ele>124</ele>
        <time>2013-07-30T16:52:18Z</time>
      </trkpt>
      <trkpt lat="48.64156" lon="2.10076">
        <ele>123</ele>
        <time>2013-07-30T16:52:22Z</time>
      </trkpt>
      <trkpt lat="48.64138" lon="2.10059">
        <ele>121</ele>
        <time>2013-07-30T16:52:28Z</time>
      </trkpt>
      <trkpt lat="48.64132" lon="2.10053">
        <ele>121</ele>
        <time>2013-07-30T16:52:30Z</time>
      </trkpt>
      <trkpt lat="48.64123" lon="2.10039">
        <ele>120</ele>
        <time>2013-07-30T16:52:34Z</time>
      </trkpt>
      <trkpt lat="48.6411" lon="2.10022">
        <ele>120</ele>
        <time>2013-07-30T16:52:40Z</time>
      </trkpt>
      <trkpt lat="48.64093" lon="2.09996">
        <ele>118</ele>
        <time>2013-07-30T16:52:48Z</time>
      </trkpt>
      <trkpt lat="48.64085" lon="2.09986">
        <ele>118</ele>
        <time>2013-07-30T16:52:52Z</time>
      </trkpt>
      <trkpt lat="48.64055" lon="2.09971">
        <ele>118</ele>
        <time>2013-07-30T16:53:06Z</time>
      </trkpt>
      <trkpt lat="48.64047" lon="2.09976">
        <ele>118</ele>
        <time>2013-07-30T16:53:10Z</time>
      </trkpt>
      <trkpt lat="48.64041" lon="2.09984">
        <ele>119</ele>
        <time>2013-07-30T16:53:14Z</time>
      </trkpt>
      <trkpt lat="48.64036" lon="2.09985">
        <ele>119</ele>
        <time>2013-07-30T16:53:16Z</time>
      </trkpt>
      <trkpt lat="48.64025" lon="2.0998">
        <ele>119</ele>
        <time>2013-07-30T16:53:20Z</time>
      </trkpt>
      <trkpt lat="48.64004" lon="2.09986">
        <ele>119</ele>
        <time>2013-07-30T16:53:28Z</time>
      </trkpt>
      <trkpt lat="48.63987" lon="2.09979">
        <ele>120</ele>
        <time>2013-07-30T16:53:34Z</time>
      </trkpt>
      <trkpt lat="48.63928" lon="2.09967">
        <ele>121</ele>
        <time>2013-07-30T16:54:00Z</time>
      </trkpt>
      <trkpt lat="48.639" lon="2.09966">
        <ele>123</ele>
        <time>2013-07-30T16:54:12Z</time>
      </trkpt>
      <trkpt lat="48.63886" lon="2.09964">
        <ele>123</ele>
        <time>2013-07-30T16:54:18Z</time>
      </trkpt>
      <trkpt lat="48.63859" lon="2.09964">
        <ele>124</ele>
        <time>2013-07-30T16:54:30Z</time>
      </trkpt>
      <trkpt lat="48.63836" lon="2.0996">
        <ele>125</ele>
        <time>2013-07-30T16:54:40Z</time>
      </trkpt>
      <trkpt lat="48.63732" lon="2.0998">
        <ele>133</ele>
        <time>2013-07-30T16:55:26Z</time>
      </trkpt>
      <trkpt lat="48.63701" lon="2.09989">
        <ele>135</ele>
        <time>2013-07-30T16:55:40Z</time>
      </trkpt>
      <trkpt lat="48.63663" lon="2.09994">
        <ele>138</ele>
        <time>2013-07-30T16:55:56Z</time>
      </trkpt>
      <trkpt lat="48.63659" lon="2.09992">
        <ele>138</ele>
        <time>2013-07-30T16:55:58Z</time>
      </trkpt>
      <trkpt lat="48.6363" lon="2.09999">
        <ele>140</ele>
        <time>2013-07-30T16:56:10Z</time>
      </trkpt>
      <trkpt lat="48.63599" lon="2.09998">
        <ele>141</ele>
        <time>2013-07-30T16:56:23Z</time>
      </trkpt>
      <trkpt lat="48.63559" lon="2.09994">
        <ele>144</ele>
        <time>2013-07-30T16:56:38Z</time>
      </trkpt>
      <trkpt lat="48.63506" lon="2.09995">
        <ele>147</ele>
        <time>2013-07-30T16:57:00Z</time>
      </trkpt>
      <trkpt lat="48.63497" lon="2.09991">
        <ele>148</ele>
        <time>2013-07-30T16:57:04Z</time>
      </trkpt>
      <trkpt lat="48.63492" lon="2.09991">
        <ele>148</ele>
        <time>2013-07-30T16:57:06Z</time>
      </trkpt>
      <trkpt lat="48.63487" lon="2.09996">
        <ele>148</ele>
        <time>2013-07-30T16:57:08Z</time>
      </trkpt>
      <trkpt lat="48.63483" lon="2.10001">
        <ele>147</ele>
        <time>2013-07-30T16:57:10Z</time>
      </trkpt>
      <trkpt lat="48.63478" lon="2.10016">
        <ele>147</ele>
        <time>2013-07-30T16:57:14Z</time>
      </trkpt>
      <trkpt lat="48.63449" lon="2.10107">
        <ele>143</ele>
        <time>2013-07-30T16:57:38Z</time>
      </trkpt>
      <trkpt lat="48.63436" lon="2.10163">
        <ele>142</ele>
        <time>2013-07-30T16:57:52Z</time>
      </trkpt>
      <trkpt lat="48.63426" lon="2.10217">
        <ele>139</ele>
        <time>2013-07-30T16:58:06Z</time>
      </trkpt>
      <trkpt lat="48.63396" lon="2.10311">
        <ele>137</ele>
        <time>2013-07-30T16:58:31Z</time>
      </trkpt>
      <trkpt lat="48.6337" lon="2.10407">
        <ele>133</ele>
        <time>2013-07-30T16:58:55Z</time>
      </trkpt>
      <trkpt lat="48.63361" lon="2.10446">
        <ele>129</ele>
        <time>2013-07-30T16:59:05Z</time>
      </trkpt>
      <trkpt lat="48.63356" lon="2.10471">
        <ele>129</ele>
        <time>2013-07-30T16:59:11Z</time>
      </trkpt>
      <trkpt lat="48.63351" lon="2.10486">
        <ele>128</ele>
        <time>2013-07-30T16:59:15Z</time>
      </trkpt>
      <trkpt lat="48.63343" lon="2.10526">
        <ele>126</ele>
        <time>2013-07-30T16:59:25Z</time>
      </trkpt>
      <trkpt lat="48.6334" lon="2.10541">
        <ele>125</ele>
        <time>2013-07-30T16:59:29Z</time>
      </trkpt>
      <trkpt lat="48.63328" lon="2.10622">
        <ele>120</ele>
        <time>2013-07-30T16:59:49Z</time>
      </trkpt>
      <trkpt lat="48.63319" lon="2.10671">
        <ele>118</ele>
        <time>2013-07-30T17:00:01Z</time>
      </trkpt>
      <trkpt lat="48.63318" lon="2.10688">
        <ele>118</ele>
        <time>2013-07-30T17:00:05Z</time>
      </trkpt>
      <trkpt lat="48.63313" lon="2.10721">
        <ele>117</ele>
        <time>2013-07-30T17:00:13Z</time>
      </trkpt>
      <trkpt lat="48.63311" lon="2.10754">
        <ele>117</ele>
        <time>2013-07-30T17:00:21Z</time>
      </trkpt>
      <trkpt lat="48.63306" lon="2.10786">
        <ele>116</ele>
        <time>2013-07-30T17:00:29Z</time>
      </trkpt>
      <trkpt lat="48.63304" lon="2.10794">
        <ele>116</ele>
        <time>2013-07-30T17:00:31Z</time>
      </trkpt>
      <trkpt lat="48.63298" lon="2.10796">
        <ele>116</ele>
        <time>2013-07-30T17:00:33Z</time>
      </trkpt>
      <trkpt lat="48.63294" lon="2.10791">
        <ele>116</ele>
        <time>2013-07-30T17:00:35Z</time>
      </trkpt>
      <trkpt lat="48.6329" lon="2.10784">
        <ele>116</ele>
        <time>2013-07-30T17:00:37Z</time>
      </trkpt>
      <trkpt lat="48.63276" lon="2.10744">
        <ele>117</ele>
        <time>2013-07-30T17:00:49Z</time>
      </trkpt>
      <trkpt lat="48.63251" lon="2.10691">
        <ele>117</ele>
        <time>2013-07-30T17:01:07Z</time>
      </trkpt>
      <trkpt lat="48.63244" lon="2.10673">
        <ele>116</ele>
        <time>2013-07-30T17:01:13Z</time>
      </trkpt>
      <trkpt lat="48.63225" lon="2.10639">
        <ele>117</ele>
        <time>2013-07-30T17:01:25Z</time>
      </trkpt>
      <trkpt lat="48.63215" lon="2.1062">
        <ele>117</ele>
        <time>2013-07-30T17:01:31Z</time>
      </trkpt>
      <trkpt lat="48.63195" lon="2.10585">
        <ele>117</ele>
        <time>2013-07-30T17:01:43Z</time>
      </trkpt>
      <trkpt lat="48.63177" lon="2.10554">
        <ele>119</ele>
        <time>2013-07-30T17:01:53Z</time>
      </trkpt>
      <trkpt lat="48.63171" lon="2.10542">
        <ele>119</ele>
        <time>2013-07-30T17:01:57Z</time>
      </trkpt>
      <trkpt lat="48.63162" lon="2.10525">
        <ele>118</ele>
        <time>2013-07-30T17:02:03Z</time>
      </trkpt>
      <trkpt lat="48.63137" lon="2.10486">
        <ele>119</ele>
        <time>2013-07-30T17:02:17Z</time>
      </trkpt>
      <trkpt lat="48.63117" lon="2.1046">
        <ele>119</ele>
        <time>2013-07-30T17:02:27Z</time>
      </trkpt>
      <trkpt lat="48.63104" lon="2.10447">
        <ele>120</ele>
        <time>2013-07-30T17:02:33Z</time>
      </trkpt>
      <trkpt lat="48.63092" lon="2.10434">
        <ele>120</ele>
        <time>2013-07-30T17:02:39Z</time>
      </trkpt>
      <trkpt lat="48.63064" lon="2.10399">
        <ele>120</ele>
        <time>2013-07-30T17:02:53Z</time>
      </trkpt>
      <trkpt lat="48.63043" lon="2.10366">
        <ele>120</ele>
        <time>2013-07-30T17:03:05Z</time>
      </trkpt>
      <trkpt lat="48.62987" lon="2.10271">
        <ele>120</ele>
        <time>2013-07-30T17:03:37Z</time>
      </trkpt>
      <trkpt lat="48.62973" lon="2.10258">
        <ele>119</ele>
        <time>2013-07-30T17:03:43Z</time>
      </trkpt>
      <trkpt lat="48.62965" lon="2.10246">
        <ele>119</ele>
        <time>2013-07-30T17:03:47Z</time>
      </trkpt>
      <trkpt lat="48.62949" lon="2.1024">
        <ele>119</ele>
        <time>2013-07-30T17:03:53Z</time>
      </trkpt>
      <trkpt lat="48.62921" lon="2.10221">
        <ele>118</ele>
        <time>2013-07-30T17:04:05Z</time>
      </trkpt>
      <trkpt lat="48.62897" lon="2.10205">
        <ele>116</ele>
        <time>2013-07-30T17:04:15Z</time>
      </trkpt>
      <trkpt lat="48.62887" lon="2.10199">
        <ele>116</ele>
        <time>2013-07-30T17:04:19Z</time>
      </trkpt>
      <trkpt lat="48.62883" lon="2.10196">
        <ele>116</ele>
        <time>2013-07-30T17:04:21Z</time>
      </trkpt>
      <trkpt lat="48.62875" lon="2.10185">
        <ele>116</ele>
        <time>2013-07-30T17:04:25Z</time>
      </trkpt>
      <trkpt lat="48.62862" lon="2.10156">
        <ele>116</ele>
        <time>2013-07-30T17:04:33Z</time>
      </trkpt>
      <trkpt lat="48.62843" lon="2.10084">
        <ele>117</ele>
        <time>2013-07-30T17:04:53Z</time>
      </trkpt>
      <trkpt lat="48.62834" lon="2.10059">
        <ele>118</ele>
        <time>2013-07-30T17:05:01Z</time>
      </trkpt>
      <trkpt lat="48.62832" lon="2.10058">
        <ele>117</ele>
        <time>2013-07-30T17:05:03Z</time>
      </trkpt>
      <trkpt lat="48.62823" lon="2.10063">
        <ele>117</ele>
        <time>2013-07-30T17:05:07Z</time>
      </trkpt>
      <trkpt lat="48.62818" lon="2.10062">
        <ele>117</ele>
        <time>2013-07-30T17:05:09Z</time>
      </trkpt>
      <trkpt lat="48.62757" lon="2.10044">
        <ele>116</ele>
        <time>2013-07-30T17:05:35Z</time>
      </trkpt>
      <trkpt lat="48.62751" lon="2.10026">
        <ele>116</ele>
        <time>2013-07-30T17:05:43Z</time>
      </trkpt>
      <trkpt lat="48.62748" lon="2.10011">
        <ele>115</ele>
        <time>2013-07-30T17:05:47Z</time>
      </trkpt>
      <trkpt lat="48.62746" lon="2.10006">
        <ele>115</ele>
        <time>2013-07-30T17:05:49Z</time>
      </trkpt>
      <trkpt lat="48.62733" lon="2.10001">
        <ele>114</ele>
        <time>2013-07-30T17:05:55Z</time>
      </trkpt>
      <trkpt lat="48.62719" lon="2.09994">
        <ele>114</ele>
        <time>2013-07-30T17:06:01Z</time>
      </trkpt>
      <trkpt lat="48.62709" lon="2.09993">
        <ele>114</ele>
        <time>2013-07-30T17:06:05Z</time>
      </trkpt>
      <trkpt lat="48.62676" lon="2.09989">
        <ele>113</ele>
        <time>2013-07-30T17:06:17Z</time>
      </trkpt>
      <trkpt lat="48.62648" lon="2.09996">
        <ele>113</ele>
        <time>2013-07-30T17:06:27Z</time>
      </trkpt>
      <trkpt lat="48.62629" lon="2.10004">
        <ele>114</ele>
        <time>2013-07-30T17:06:35Z</time>
      </trkpt>
      <trkpt lat="48.62616" lon="2.10013">
        <ele>114</ele>
        <time>2013-07-30T17:06:41Z</time>
      </trkpt>
      <trkpt lat="48.62601" lon="2.10031">
        <ele>114</ele>
        <time>2013-07-30T17:06:49Z</time>
      </trkpt>
      <trkpt lat="48.62594" lon="2.10036">
        <ele>114</ele>
        <time>2013-07-30T17:06:53Z</time>
      </trkpt>
      <trkpt lat="48.6257" lon="2.10056">
        <ele>116</ele>
        <time>2013-07-30T17:07:03Z</time>
      </trkpt>
      <trkpt lat="48.62554" lon="2.10075">
        <ele>116</ele>
        <time>2013-07-30T17:07:11Z</time>
      </trkpt>
      <trkpt lat="48.62532" lon="2.1011">
        <ele>115</ele>
        <time>2013-07-30T17:07:23Z</time>
      </trkpt>
      <trkpt lat="48.62483" lon="2.10202">
        <ele>114</ele>
        <time>2013-07-30T17:07:52Z</time>
      </trkpt>
      <trkpt lat="48.62475" lon="2.10213">
        <ele>114</ele>
        <time>2013-07-30T17:07:56Z</time>
      </trkpt>
      <trkpt lat="48.62462" lon="2.10236">
        <ele>114</ele>
        <time>2013-07-30T17:08:04Z</time>
      </trkpt>
      <trkpt lat="48.62455" lon="2.10243">
        <ele>114</ele>
        <time>2013-07-30T17:08:08Z</time>
      </trkpt>
      <trkpt lat="48.62447" lon="2.10243">
        <ele>114</ele>
        <time>2013-07-30T17:08:16Z</time>
      </trkpt>
      <trkpt lat="48.62443" lon="2.10235">
        <ele>115</ele>
        <time>2013-07-30T17:08:20Z</time>
      </trkpt>
      <trkpt lat="48.6244" lon="2.10227">
        <ele>115</ele>
        <time>2013-07-30T17:08:22Z</time>
      </trkpt>
      <trkpt lat="48.62414" lon="2.10184">
        <ele>116</ele>
        <time>2013-07-30T17:08:36Z</time>
      </trkpt>
      <trkpt lat="48.62402" lon="2.1017">
        <ele>116</ele>
        <time>2013-07-30T17:08:42Z</time>
      </trkpt>
      <trkpt lat="48.62383" lon="2.10149">
        <ele>117</ele>
        <time>2013-07-30T17:08:52Z</time>
      </trkpt>
      <trkpt lat="48.62363" lon="2.10125">
        <ele>117</ele>
        <time>2013-07-30T17:09:02Z</time>
      </trkpt>
      <trkpt lat="48.62331" lon="2.10094">
        <ele>118</ele>
        <time>2013-07-30T17:09:18Z</time>
      </trkpt>
      <trkpt lat="48.623" lon="2.10067">
        <ele>120</ele>
        <time>2013-07-30T17:09:32Z</time>
      </trkpt>
      <trkpt lat="48.62257" lon="2.10022">
        <ele>121</ele>
        <time>2013-07-30T17:09:54Z</time>
      </trkpt>
      <trkpt lat="48.6224" lon="2.10005">
        <ele>122</ele>
        <time>2013-07-30T17:10:02Z</time>
      </trkpt>
      <trkpt lat="48.62199" lon="2.09967">
        <ele>123</ele>
        <time>2013-07-30T17:10:21Z</time>
      </trkpt>
      <trkpt lat="48.62191" lon="2.09961">
        <ele>123</ele>
        <time>2013-07-30T17:10:25Z</time>
      </trkpt>
      <trkpt lat="48.62175" lon="2.0994">
        <ele>124</ele>
        <time>2013-07-30T17:10:33Z</time>
      </trkpt>
      <trkpt lat="48.62169" lon="2.09927">
        <ele>124</ele>
        <time>2013-07-30T17:10:37Z</time>
      </trkpt>
      <trkpt lat="48.62155" lon="2.09888">
        <ele>126</ele>
        <time>2013-07-30T17:10:48Z</time>
      </trkpt>
      <trkpt lat="48.62148" lon="2.09859">
        <ele>126</ele>
        <time>2013-07-30T17:10:56Z</time>
      </trkpt>
      <trkpt lat="48.62129" lon="2.09803">
        <ele>129</ele>
        <time>2013-07-30T17:11:12Z</time>
      </trkpt>
      <trkpt lat="48.62111" lon="2.0976">
        <ele>130</ele>
        <time>2013-07-30T17:11:26Z</time>
      </trkpt>
      <trkpt lat="48.62092" lon="2.09725">
        <ele>132</ele>
        <time>2013-07-30T17:11:38Z</time>
      </trkpt>
      <trkpt lat="48.62078" lon="2.09694">
        <ele>133</ele>
        <time>2013-07-30T17:11:48Z</time>
      </trkpt>
      <trkpt lat="48.62059" lon="2.09654">
        <ele>134</ele>
        <time>2013-07-30T17:12:02Z</time>
      </trkpt>
      <trkpt lat="48.62034" lon="2.09588">
        <ele>134</ele>
        <time>2013-07-30T17:12:22Z</time>
      </trkpt>
      <trkpt lat="48.62029" lon="2.09567">
        <ele>135</ele>
        <time>2013-07-30T17:12:28Z</time>
      </trkpt>
      <trkpt lat="48.62019" lon="2.09549">
        <ele>135</ele>
        <time>2013-07-30T17:12:34Z</time>
      </trkpt>
      <trkpt lat="48.62013" lon="2.09542">
        <ele>135</ele>
        <time>2013-07-30T17:12:38Z</time>
      </trkpt>
      <trkpt lat="48.62012" lon="2.09538">
        <ele>135</ele>
        <time>2013-07-30T17:12:40Z</time>
      </trkpt>
      <trkpt lat="48.62024" lon="2.09529">
        <ele>135</ele>
        <time>2013-07-30T17:12:46Z</time>
      </trkpt>
      <trkpt lat="48.62028" lon="2.09525">
        <ele>135</ele>
        <time>2013-07-30T17:12:48Z</time>
      </trkpt>
      <trkpt lat="48.62036" lon="2.09508">
        <ele>135</ele>
        <time>2013-07-30T17:12:54Z</time>
      </trkpt>
      <trkpt lat="48.6204" lon="2.09493">
        <ele>136</ele>
        <time>2013-07-30T17:12:58Z</time>
      </trkpt>
      <trkpt lat="48.6207" lon="2.09443">
        <ele>137</ele>
        <time>2013-07-30T17:13:16Z</time>
      </trkpt>
      <trkpt lat="48.62085" lon="2.09409">
        <ele>137</ele>
        <time>2013-07-30T17:13:26Z</time>
      </trkpt>
      <trkpt lat="48.62092" lon="2.09396">
        <ele>138</ele>
        <time>2013-07-30T17:13:30Z</time>
      </trkpt>
      <trkpt lat="48.62106" lon="2.09361">
        <ele>139</ele>
        <time>2013-07-30T17:13:38Z</time>
      </trkpt>
      <trkpt lat="48.62118" lon="2.09345">
        <ele>139</ele>
        <time>2013-07-30T17:13:44Z</time>
      </trkpt>
      <trkpt lat="48.62141" lon="2.09306">
        <ele>142</ele>
        <time>2013-07-30T17:13:58Z</time>
      </trkpt>
      <trkpt lat="48.62149" lon="2.09289">
        <ele>143</ele>
        <time>2013-07-30T17:14:04Z</time>
      </trkpt>
      <trkpt lat="48.62156" lon="2.0927">
        <ele>143</ele>
        <time>2013-07-30T17:14:08Z</time>
      </trkpt>
      <trkpt lat="48.62161" lon="2.09254">
        <ele>144</ele>
        <time>2013-07-30T17:14:12Z</time>
      </trkpt>
      <trkpt lat="48.62166" lon="2.09218">
        <ele>146</ele>
        <time>2013-07-30T17:14:22Z</time>
      </trkpt>
      <trkpt lat="48.62166" lon="2.09205">
        <ele>146</ele>
        <time>2013-07-30T17:14:26Z</time>
      </trkpt>
      <trkpt lat="48.6215" lon="2.09176">
        <ele>146</ele>
        <time>2013-07-30T17:14:36Z</time>
      </trkpt>
      <trkpt lat="48.62141" lon="2.09166">
        <ele>147</ele>
        <time>2013-07-30T17:14:40Z</time>
      </trkpt>
      <trkpt lat="48.62136" lon="2.09154">
        <ele>147</ele>
        <time>2013-07-30T17:14:44Z</time>
      </trkpt>
      <trkpt lat="48.62122" lon="2.09139">
        <ele>147</ele>
        <time>2013-07-30T17:14:50Z</time>
      </trkpt>
      <trkpt lat="48.62111" lon="2.09104">
        <ele>148</ele>
        <time>2013-07-30T17:14:58Z</time>
      </trkpt>
      <trkpt lat="48.62109" lon="2.09088">
        <ele>149</ele>
        <time>2013-07-30T17:15:02Z</time>
      </trkpt>
      <trkpt lat="48.62107" lon="2.09081">
        <ele>149</ele>
        <time>2013-07-30T17:15:04Z</time>
      </trkpt>
      <trkpt lat="48.6209" lon="2.09035">
        <ele>150</ele>
        <time>2013-07-30T17:15:18Z</time>
      </trkpt>
      <trkpt lat="48.62084" lon="2.09018">
        <ele>151</ele>
        <time>2013-07-30T17:15:24Z</time>
      </trkpt>
      <trkpt lat="48.62074" lon="2.08998">
        <ele>155</ele>
        <time>2013-07-30T17:15:32Z</time>
      </trkpt>
      <trkpt lat="48.62062" lon="2.08962">
        <ele>158</ele>
        <time>2013-07-30T17:15:46Z</time>
      </trkpt>
      <trkpt lat="48.62055" lon="2.08952">
        <ele>159</ele>
        <time>2013-07-30T17:15:50Z</time>
      </trkpt>
      <trkpt lat="48.62053" lon="2.08945">
        <ele>159</ele>
        <time>2013-07-30T17:15:52Z</time>
      </trkpt>
      <trkpt lat="48.62031" lon="2.08891">
        <ele>161</ele>
        <time>2013-07-30T17:16:10Z</time>
      </trkpt>
      <trkpt lat="48.62023" lon="2.08871">
        <ele>161</ele>
        <time>2013-07-30T17:16:18Z</time>
      </trkpt>
      <trkpt lat="48.62021" lon="2.08862">
        <ele>161</ele>
        <time>2013-07-30T17:16:24Z</time>
      </trkpt>
      <trkpt lat="48.62022" lon="2.0886">
        <ele>161</ele>
        <time>2013-07-30T17:16:28Z</time>
      </trkpt>
      <trkpt lat="48.62025" lon="2.0886">
        <ele>161</ele>
        <time>2013-07-30T17:16:32Z</time>
      </trkpt>
      <trkpt lat="48.62014" lon="2.0888">
        <ele>162</ele>
        <time>2013-07-30T17:16:42Z</time>
      </trkpt>
      <trkpt lat="48.62005" lon="2.08886">
        <ele>162</ele>
        <time>2013-07-30T17:16:46Z</time>
      </trkpt>
      <trkpt lat="48.61977" lon="2.08892">
        <ele>166</ele>
        <time>2013-07-30T17:17:00Z</time>
      </trkpt>
      <trkpt lat="48.61955" lon="2.08904">
        <ele>167</ele>
        <time>2013-07-30T17:17:08Z</time>
      </trkpt>
      <trkpt lat="48.61929" lon="2.0891">
        <ele>168</ele>
        <time>2013-07-30T17:17:18Z</time>
      </trkpt>
      <trkpt lat="48.61919" lon="2.0891">
        <ele>168</ele>
        <time>2013-07-30T17:17:22Z</time>
      </trkpt>
      <trkpt lat="48.61911" lon="2.08905">
        <ele>168</ele>
        <time>2013-07-30T17:17:26Z</time>
      </trkpt>
      <trkpt lat="48.61903" lon="2.08895">
        <ele>168</ele>
        <time>2013-07-30T17:17:30Z</time>
      </trkpt>
      <trkpt lat="48.61896" lon="2.08884">
        <ele>168</ele>
        <time>2013-07-30T17:17:34Z</time>
      </trkpt>
      <trkpt lat="48.61885" lon="2.08857">
        <ele>169</ele>
        <time>2013-07-30T17:17:42Z</time>
      </trkpt>
      <trkpt lat="48.61878" lon="2.08854">
        <ele>169</ele>
        <time>2013-07-30T17:17:46Z</time>
      </trkpt>
      <trkpt lat="48.61875" lon="2.08849">
        <ele>169</ele>
        <time>2013-07-30T17:17:48Z</time>
      </trkpt>
      <trkpt lat="48.61875" lon="2.08843">
        <ele>169</ele>
        <time>2013-07-30T17:17:50Z</time>
      </trkpt>
      <trkpt lat="48.61872" lon="2.08838">
        <ele>169</ele>
        <time>2013-07-30T17:17:52Z</time>
      </trkpt>
      <trkpt lat="48.6186" lon="2.08815">
        <ele>170</ele>
        <time>2013-07-30T17:18:00Z</time>
      </trkpt>
      <trkpt lat="48.61862" lon="2.08808">
        <ele>170</ele>
        <time>2013-07-30T17:18:04Z</time>
      </trkpt>
      <trkpt lat="48.61867" lon="2.08806">
        <ele>170</ele>
        <time>2013-07-30T17:18:08Z</time>
      </trkpt>
      <trkpt lat="48.61868" lon="2.08802">
        <ele>170</ele>
        <time>2013-07-30T17:18:10Z</time>
      </trkpt>
      <trkpt lat="48.61861" lon="2.08789">
        <ele>170</ele>
        <time>2013-07-30T17:18:14Z</time>
      </trkpt>
      <trkpt lat="48.61852" lon="2.08768">
        <ele>171</ele>
        <time>2013-07-30T17:18:20Z</time>
      </trkpt>
      <trkpt lat="48.61844" lon="2.08735">
        <ele>171</ele>
        <time>2013-07-30T17:18:28Z</time>
      </trkpt>
      <trkpt lat="48.61842" lon="2.08726">
        <ele>171</ele>
        <time>2013-07-30T17:18:30Z</time>
      </trkpt>
      <trkpt lat="48.61835" lon="2.0871">
        <ele>170</ele>
        <time>2013-07-30T17:18:34Z</time>
      </trkpt>
      <trkpt lat="48.61825" lon="2.08681">
        <ele>170</ele>
        <time>2013-07-30T17:18:40Z</time>
      </trkpt>
      <trkpt lat="48.61809" lon="2.08644">
        <ele>169</ele>
        <time>2013-07-30T17:18:50Z</time>
      </trkpt>
      <trkpt lat="48.618" lon="2.0862">
        <ele>169</ele>
        <time>2013-07-30T17:18:56Z</time>
      </trkpt>
      <trkpt lat="48.61786" lon="2.08576">
        <ele>168</ele>
        <time>2013-07-30T17:19:08Z</time>
      </trkpt>
      <trkpt lat="48.61779" lon="2.0855">
        <ele>168</ele>
        <time>2013-07-30T17:19:16Z</time>
      </trkpt>
      <trkpt lat="48.6176" lon="2.08505">
        <ele>169</ele>
        <time>2013-07-30T17:19:30Z</time>
      </trkpt>
      <trkpt lat="48.61745" lon="2.08459">
        <ele>167</ele>
        <time>2013-07-30T17:19:42Z</time>
      </trkpt>
      <trkpt lat="48.61737" lon="2.0844">
        <ele>167</ele>
        <time>2013-07-30T17:19:48Z</time>
      </trkpt>
      <trkpt lat="48.61736" lon="2.08431">
        <ele>167</ele>
        <time>2013-07-30T17:19:50Z</time>
      </trkpt>
      <trkpt lat="48.61732" lon="2.08413">
        <ele>168</ele>
        <time>2013-07-30T17:19:54Z</time>
      </trkpt>
      <trkpt lat="48.61732" lon="2.084">
        <ele>167</ele>
        <time>2013-07-30T17:19:58Z</time>
      </trkpt>
      <trkpt lat="48.61727" lon="2.0838">
        <ele>167</ele>
        <time>2013-07-30T17:20:04Z</time>
      </trkpt>
      <trkpt lat="48.61723" lon="2.0837">
        <ele>167</ele>
        <time>2013-07-30T17:20:06Z</time>
      </trkpt>
      <trkpt lat="48.61715" lon="2.08358">
        <ele>167</ele>
        <time>2013-07-30T17:20:10Z</time>
      </trkpt>
      <trkpt lat="48.61705" lon="2.08337">
        <ele>167</ele>
        <time>2013-07-30T17:20:16Z</time>
      </trkpt>
      <trkpt lat="48.61698" lon="2.08315">
        <ele>166</ele>
        <time>2013-07-30T17:20:24Z</time>
      </trkpt>
      <trkpt lat="48.61699" lon="2.08306">
        <ele>167</ele>
        <time>2013-07-30T17:20:30Z</time>
      </trkpt>
      <trkpt lat="48.61695" lon="2.08283">
        <ele>166</ele>
        <time>2013-07-30T17:20:42Z</time>
      </trkpt>
      <trkpt lat="48.6169" lon="2.08272">
        <ele>166</ele>
        <time>2013-07-30T17:20:48Z</time>
      </trkpt>
      <trkpt lat="48.61683" lon="2.08263">
        <ele>166</ele>
        <time>2013-07-30T17:20:55Z</time>
      </trkpt>
      <trkpt lat="48.6168" lon="2.08256">
        <ele>165</ele>
        <time>2013-07-30T17:21:00Z</time>
      </trkpt>
      <trkpt lat="48.6168" lon="2.08251">
        <ele>165</ele>
        <time>2013-07-30T17:21:04Z</time>
      </trkpt>
      <trkpt lat="48.61678" lon="2.08249">
        <ele>165</ele>
        <time>2013-07-30T17:21:12Z</time>
      </trkpt>
      <trkpt lat="48.61679" lon="2.08247">
        <ele>165</ele>
        <time>2013-07-30T17:21:15Z</time>
      </trkpt>
      <trkpt lat="48.61678" lon="2.08243">
        <ele>165</ele>
        <time>2013-07-30T17:21:22Z</time>
      </trkpt>
      <trkpt lat="48.61679" lon="2.0824">
        <ele>165</ele>
        <time>2013-07-30T17:21:28Z</time>
      </trkpt>
      <trkpt lat="48.61692" lon="2.08229">
        <ele>165</ele>
        <time>2013-07-30T17:21:36Z</time>
      </trkpt>
      <trkpt lat="48.61705" lon="2.08221">
        <ele>166</ele>
        <time>2013-07-30T17:21:42Z</time>
      </trkpt>
      <trkpt lat="48.61712" lon="2.0821">
        <ele>166</ele>
        <time>2013-07-30T17:21:46Z</time>
      </trkpt>
      <trkpt lat="48.61717" lon="2.08199">
        <ele>166</ele>
        <time>2013-07-30T17:21:50Z</time>
      </trkpt>
      <trkpt lat="48.6172" lon="2.08187">
        <ele>166</ele>
        <time>2013-07-30T17:21:54Z</time>
      </trkpt>
      <trkpt lat="48.61722" lon="2.08156">
        <ele>166</ele>
        <time>2013-07-30T17:22:02Z</time>
      </trkpt>
      <trkpt lat="48.61727" lon="2.08126">
        <ele>166</ele>
        <time>2013-07-30T17:22:10Z</time>
      </trkpt>
      <trkpt lat="48.6173" lon="2.08119">
        <ele>166</ele>
        <time>2013-07-30T17:22:12Z</time>
      </trkpt>
      <trkpt lat="48.61731" lon="2.08111">
        <ele>167</ele>
        <time>2013-07-30T17:22:14Z</time>
      </trkpt>
      <trkpt lat="48.61739" lon="2.08056">
        <ele>167</ele>
        <time>2013-07-30T17:22:28Z</time>
      </trkpt>
      <trkpt lat="48.61743" lon="2.08022">
        <ele>167</ele>
        <time>2013-07-30T17:22:36Z</time>
      </trkpt>
      <trkpt lat="48.61759" lon="2.07967">
        <ele>167</ele>
        <time>2013-07-30T17:22:50Z</time>
      </trkpt>
      <trkpt lat="48.61765" lon="2.07954">
        <ele>167</ele>
        <time>2013-07-30T17:22:54Z</time>
      </trkpt>
      <trkpt lat="48.61778" lon="2.07937">
        <ele>167</ele>
        <time>2013-07-30T17:23:00Z</time>
      </trkpt>
      <trkpt lat="48.61792" lon="2.07911">
        <ele>166</ele>
        <time>2013-07-30T17:23:08Z</time>
      </trkpt>
      <trkpt lat="48.618" lon="2.07883">
        <ele>166</ele>
        <time>2013-07-30T17:23:16Z</time>
      </trkpt>
      <trkpt lat="48.61811" lon="2.07852">
        <ele>166</ele>
        <time>2013-07-30T17:23:24Z</time>
      </trkpt>
      <trkpt lat="48.61819" lon="2.07835">
        <ele>167</ele>
        <time>2013-07-30T17:23:30Z</time>
      </trkpt>
      <trkpt lat="48.61826" lon="2.0782">
        <ele>167</ele>
        <time>2013-07-30T17:23:34Z</time>
      </trkpt>
      <trkpt lat="48.61849" lon="2.07785">
        <ele>169</ele>
        <time>2013-07-30T17:23:46Z</time>
      </trkpt>
      <trkpt lat="48.61867" lon="2.07763">
        <ele>169</ele>
        <time>2013-07-30T17:23:54Z</time>
      </trkpt>
      <trkpt lat="48.6187" lon="2.07756">
        <ele>169</ele>
        <time>2013-07-30T17:23:56Z</time>
      </trkpt>
      <trkpt lat="48.61879" lon="2.07726">
        <ele>168</ele>
        <time>2013-07-30T17:24:06Z</time>
      </trkpt>
      <trkpt lat="48.61887" lon="2.07684">
        <ele>169</ele>
        <time>2013-07-30T17:24:18Z</time>
      </trkpt>
      <trkpt lat="48.61906" lon="2.07641">
        <ele>169</ele>
        <time>2013-07-30T17:24:32Z</time>
      </trkpt>
      <trkpt lat="48.61902" lon="2.07631">
        <ele>169</ele>
        <time>2013-07-30T17:24:37Z</time>
      </trkpt>
      <trkpt lat="48.61903" lon="2.07627">
        <ele>169</ele>
        <time>2013-07-30T17:24:40Z</time>
      </trkpt>
      <trkpt lat="48.6192" lon="2.07588">
        <ele>172</ele>
        <time>2013-07-30T17:24:50Z</time>
      </trkpt>
      <trkpt lat="48.61929" lon="2.07561">
        <ele>173</ele>
        <time>2013-07-30T17:24:58Z</time>
      </trkpt>
      <trkpt lat="48.61953" lon="2.07524">
        <ele>174</ele>
        <time>2013-07-30T17:25:10Z</time>
      </trkpt>
      <trkpt lat="48.61968" lon="2.0749">
        <ele>175</ele>
        <time>2013-07-30T17:25:20Z</time>
      </trkpt>
      <trkpt lat="48.61977" lon="2.07463">
        <ele>175</ele>
        <time>2013-07-30T17:25:28Z</time>
      </trkpt>
      <trkpt lat="48.6198" lon="2.07442">
        <ele>175</ele>
        <time>2013-07-30T17:25:34Z</time>
      </trkpt>
      <trkpt lat="48.61988" lon="2.07407">
        <ele>175</ele>
        <time>2013-07-30T17:25:44Z</time>
      </trkpt>
      <trkpt lat="48.61995" lon="2.07399">
        <ele>175</ele>
        <time>2013-07-30T17:25:48Z</time>
      </trkpt>
      <trkpt lat="48.62028" lon="2.07379">
        <ele>176</ele>
        <time>2013-07-30T17:26:04Z</time>
      </trkpt>
      <trkpt lat="48.62053" lon="2.07369">
        <ele>176</ele>
        <time>2013-07-30T17:26:14Z</time>
      </trkpt>
      <trkpt lat="48.62058" lon="2.07359">
        <ele>176</ele>
        <time>2013-07-30T17:26:18Z</time>
      </trkpt>
      <trkpt lat="48.62085" lon="2.07349">
        <ele>175</ele>
        <time>2013-07-30T17:26:28Z</time>
      </trkpt>
      <trkpt lat="48.62103" lon="2.0734">
        <ele>174</ele>
        <time>2013-07-30T17:26:34Z</time>
      </trkpt>
      <trkpt lat="48.62122" lon="2.07335">
        <ele>173</ele>
        <time>2013-07-30T17:26:40Z</time>
      </trkpt>
      <trkpt lat="48.62147" lon="2.07336">
        <ele>173</ele>
        <time>2013-07-30T17:26:52Z</time>
      </trkpt>
      <trkpt lat="48.6218" lon="2.07362">
        <ele>168</ele>
        <time>2013-07-30T17:27:08Z</time>
      </trkpt>
      <trkpt lat="48.62194" lon="2.07372">
        <ele>167</ele>
        <time>2013-07-30T17:27:14Z</time>
      </trkpt>
      <trkpt lat="48.62219" lon="2.07384">
        <ele>165</ele>
        <time>2013-07-30T17:27:22Z</time>
      </trkpt>
      <trkpt lat="48.62228" lon="2.07385">
        <ele>165</ele>
        <time>2013-07-30T17:27:24Z</time>
      </trkpt>
      <trkpt lat="48.62244" lon="2.07385">
        <ele>164</ele>
        <time>2013-07-30T17:27:28Z</time>
      </trkpt>
      <trkpt lat="48.62274" lon="2.07376">
        <ele>161</ele>
        <time>2013-07-30T17:27:38Z</time>
      </trkpt>
      <trkpt lat="48.62285" lon="2.07372">
        <ele>161</ele>
        <time>2013-07-30T17:27:42Z</time>
      </trkpt>
      <trkpt lat="48.62291" lon="2.07372">
        <ele>160</ele>
        <time>2013-07-30T17:27:44Z</time>
      </trkpt>
      <trkpt lat="48.62308" lon="2.07384">
        <ele>160</ele>
        <time>2013-07-30T17:27:51Z</time>
      </trkpt>
      <trkpt lat="48.62318" lon="2.07392">
        <ele>159</ele>
        <time>2013-07-30T17:27:55Z</time>
      </trkpt>
      <trkpt lat="48.62342" lon="2.07423">
        <ele>158</ele>
        <time>2013-07-30T17:28:07Z</time>
      </trkpt>
      <trkpt lat="48.62363" lon="2.07445">
        <ele>158</ele>
        <time>2013-07-30T17:28:17Z</time>
      </trkpt>
      <trkpt lat="48.62395" lon="2.0747">
        <ele>159</ele>
        <time>2013-07-30T17:28:31Z</time>
      </trkpt>
      <trkpt lat="48.62401" lon="2.07473">
        <ele>160</ele>
        <time>2013-07-30T17:28:33Z</time>
      </trkpt>
      <trkpt lat="48.62414" lon="2.07468">
        <ele>160</ele>
        <time>2013-07-30T17:28:39Z</time>
      </trkpt>
      <trkpt lat="48.62441" lon="2.07483">
        <ele>162</ele>
        <time>2013-07-30T17:28:53Z</time>
      </trkpt>
      <trkpt lat="48.62464" lon="2.0749">
        <ele>163</ele>
        <time>2013-07-30T17:29:03Z</time>
      </trkpt>
      <trkpt lat="48.62472" lon="2.07492">
        <ele>163</ele>
        <time>2013-07-30T17:29:07Z</time>
      </trkpt>
      <trkpt lat="48.62493" lon="2.07491">
        <ele>162</ele>
        <time>2013-07-30T17:29:15Z</time>
      </trkpt>
      <trkpt lat="48.62496" lon="2.07491">
        <ele>162</ele>
        <time>2013-07-30T17:29:17Z</time>
      </trkpt>
      <trkpt lat="48.62498" lon="2.07491">
        <ele>162</ele>
        <time>2013-07-30T17:29:19Z</time>
      </trkpt>
      <trkpt lat="48.62497" lon="2.07491">
        <ele>162</ele>
        <time>2013-07-30T17:29:25Z</time>
      </trkpt>
      <trkpt lat="48.625" lon="2.07493">
        <ele>162</ele>
        <time>2013-07-30T17:29:31Z</time>
      </trkpt>
      <trkpt lat="48.62509" lon="2.07497">
        <ele>162</ele>
        <time>2013-07-30T17:29:35Z</time>
      </trkpt>
      <trkpt lat="48.62521" lon="2.07498">
        <ele>162</ele>
        <time>2013-07-30T17:29:39Z</time>
      </trkpt>
      <trkpt lat="48.62541" lon="2.07494">
        <ele>162</ele>
        <time>2013-07-30T17:29:47Z</time>
      </trkpt>
      <trkpt lat="48.62556" lon="2.07477">
        <ele>162</ele>
        <time>2013-07-30T17:30:02Z</time>
      </trkpt>
      <trkpt lat="48.62592" lon="2.07461">
        <ele>159</ele>
        <time>2013-07-30T17:30:24Z</time>
      </trkpt>
      <trkpt lat="48.62581" lon="2.07465">
        <ele>162</ele>
        <time>2013-07-30T17:30:30Z</time>
      </trkpt>
      <trkpt lat="48.62571" lon="2.07472">
        <ele>162</ele>
        <time>2013-07-30T17:30:34Z</time>
      </trkpt>
      <trkpt lat="48.62565" lon="2.0747">
        <ele>162</ele>
        <time>2013-07-30T17:30:36Z</time>
      </trkpt>
      <trkpt lat="48.62566" lon="2.07461">
        <ele>162</ele>
        <time>2013-07-30T17:30:38Z</time>
      </trkpt>
      <trkpt lat="48.6257" lon="2.07444">
        <ele>162</ele>
        <time>2013-07-30T17:30:42Z</time>
      </trkpt>
      <trkpt lat="48.62572" lon="2.07428">
        <ele>162</ele>
        <time>2013-07-30T17:30:52Z</time>
      </trkpt>
      <trkpt lat="48.62581" lon="2.07397">
        <ele>163</ele>
        <time>2013-07-30T17:31:02Z</time>
      </trkpt>
      <trkpt lat="48.62598" lon="2.07367">
        <ele>161</ele>
        <time>2013-07-30T17:31:10Z</time>
      </trkpt>
      <trkpt lat="48.62604" lon="2.07354">
        <ele>161</ele>
        <time>2013-07-30T17:31:14Z</time>
      </trkpt>
      <trkpt lat="48.62608" lon="2.07352">
        <ele>161</ele>
        <time>2013-07-30T17:31:16Z</time>
      </trkpt>
      <trkpt lat="48.62611" lon="2.07355">
        <ele>161</ele>
        <time>2013-07-30T17:31:18Z</time>
      </trkpt>
      <trkpt lat="48.62617" lon="2.07369">
        <ele>161</ele>
        <time>2013-07-30T17:31:24Z</time>
      </trkpt>
      <trkpt lat="48.62627" lon="2.07398">
        <ele>160</ele>
        <time>2013-07-30T17:31:34Z</time>
      </trkpt>
      <trkpt lat="48.62633" lon="2.0741">
        <ele>160</ele>
        <time>2013-07-30T17:31:38Z</time>
      </trkpt>
      <trkpt lat="48.62639" lon="2.07423">
        <ele>159</ele>
        <time>2013-07-30T17:31:42Z</time>
      </trkpt>
      <trkpt lat="48.62645" lon="2.07442">
        <ele>158</ele>
        <time>2013-07-30T17:31:48Z</time>
      </trkpt>
      <trkpt lat="48.62651" lon="2.07455">
        <ele>158</ele>
        <time>2013-07-30T17:31:54Z</time>
      </trkpt>
      <trkpt lat="48.62653" lon="2.07456">
        <ele>158</ele>
        <time>2013-07-30T17:32:01Z</time>
      </trkpt>
      <trkpt lat="48.62647" lon="2.07442">
        <ele>158</ele>
        <time>2013-07-30T17:32:07Z</time>
      </trkpt>
      <trkpt lat="48.62638" lon="2.07427">
        <ele>159</ele>
        <time>2013-07-30T17:32:11Z</time>
      </trkpt>
      <trkpt lat="48.6263" lon="2.07402">
        <ele>160</ele>
        <time>2013-07-30T17:32:19Z</time>
      </trkpt>
      <trkpt lat="48.62599" lon="2.07342">
        <ele>162</ele>
        <time>2013-07-30T17:32:41Z</time>
      </trkpt>
      <trkpt lat="48.62588" lon="2.07328">
        <ele>162</ele>
        <time>2013-07-30T17:32:47Z</time>
      </trkpt>
      <trkpt lat="48.62581" lon="2.07315">
        <ele>163</ele>
        <time>2013-07-30T17:32:51Z</time>
      </trkpt>
      <trkpt lat="48.62579" lon="2.07309">
        <ele>164</ele>
        <time>2013-07-30T17:32:53Z</time>
      </trkpt>
      <trkpt lat="48.6258" lon="2.07303">
        <ele>164</ele>
        <time>2013-07-30T17:32:55Z</time>
      </trkpt>
      <trkpt lat="48.62589" lon="2.07282">
        <ele>162</ele>
        <time>2013-07-30T17:33:01Z</time>
      </trkpt>
      <trkpt lat="48.62593" lon="2.07266">
        <ele>162</ele>
        <time>2013-07-30T17:33:05Z</time>
      </trkpt>
      <trkpt lat="48.626" lon="2.07254">
        <ele>162</ele>
        <time>2013-07-30T17:33:09Z</time>
      </trkpt>
      <trkpt lat="48.62606" lon="2.07249">
        <ele>161</ele>
        <time>2013-07-30T17:33:11Z</time>
      </trkpt>
      <trkpt lat="48.62627" lon="2.07192">
        <ele>160</ele>
        <time>2013-07-30T17:33:27Z</time>
      </trkpt>
      <trkpt lat="48.62636" lon="2.07177">
        <ele>160</ele>
        <time>2013-07-30T17:33:32Z</time>
      </trkpt>
      <trkpt lat="48.62649" lon="2.07163">
        <ele>159</ele>
        <time>2013-07-30T17:33:38Z</time>
      </trkpt>
      <trkpt lat="48.62652" lon="2.07157">
        <ele>159</ele>
        <time>2013-07-30T17:33:40Z</time>
      </trkpt>
      <trkpt lat="48.62655" lon="2.07152">
        <ele>159</ele>
        <time>2013-07-30T17:33:42Z</time>
      </trkpt>
      <trkpt lat="48.62661" lon="2.07122">
        <ele>159</ele>
        <time>2013-07-30T17:33:50Z</time>
      </trkpt>
      <trkpt lat="48.62664" lon="2.07117">
        <ele>159</ele>
        <time>2013-07-30T17:33:52Z</time>
      </trkpt>
      <trkpt lat="48.62682" lon="2.07102">
        <ele>156</ele>
        <time>2013-07-30T17:34:00Z</time>
      </trkpt>
      <trkpt lat="48.6269" lon="2.07091">
        <ele>155</ele>
        <time>2013-07-30T17:34:04Z</time>
      </trkpt>
      <trkpt lat="48.62694" lon="2.0707">
        <ele>155</ele>
        <time>2013-07-30T17:34:10Z</time>
      </trkpt>
      <trkpt lat="48.62695" lon="2.07053">
        <ele>155</ele>
        <time>2013-07-30T17:34:14Z</time>
      </trkpt>
      <trkpt lat="48.62697" lon="2.07045">
        <ele>155</ele>
        <time>2013-07-30T17:34:16Z</time>
      </trkpt>
      <trkpt lat="48.62702" lon="2.07041">
        <ele>155</ele>
        <time>2013-07-30T17:34:18Z</time>
      </trkpt>
      <trkpt lat="48.62713" lon="2.07038">
        <ele>154</ele>
        <time>2013-07-30T17:34:22Z</time>
      </trkpt>
      <trkpt lat="48.62729" lon="2.07028">
        <ele>154</ele>
        <time>2013-07-30T17:34:28Z</time>
      </trkpt>
      <trkpt lat="48.62737" lon="2.07017">
        <ele>153</ele>
        <time>2013-07-30T17:34:32Z</time>
      </trkpt>
      <trkpt lat="48.6276" lon="2.06992">
        <ele>150</ele>
        <time>2013-07-30T17:34:42Z</time>
      </trkpt>
      <trkpt lat="48.6277" lon="2.06974">
        <ele>149</ele>
        <time>2013-07-30T17:34:48Z</time>
      </trkpt>
      <trkpt lat="48.62776" lon="2.06949">
        <ele>149</ele>
        <time>2013-07-30T17:34:54Z</time>
      </trkpt>
      <trkpt lat="48.62777" lon="2.06931">
        <ele>149</ele>
        <time>2013-07-30T17:34:58Z</time>
      </trkpt>
      <trkpt lat="48.62777" lon="2.06923">
        <ele>149</ele>
        <time>2013-07-30T17:35:00Z</time>
      </trkpt>
      <trkpt lat="48.62779" lon="2.0686">
        <ele>150</ele>
        <time>2013-07-30T17:35:14Z</time>
      </trkpt>
      <trkpt lat="48.62788" lon="2.06831">
        <ele>151</ele>
        <time>2013-07-30T17:35:22Z</time>
      </trkpt>
      <trkpt lat="48.62804" lon="2.06799">
        <ele>151</ele>
        <time>2013-07-30T17:35:32Z</time>
      </trkpt>
      <trkpt lat="48.62809" lon="2.06786">
        <ele>151</ele>
        <time>2013-07-30T17:35:36Z</time>
      </trkpt>
      <trkpt lat="48.6281" lon="2.06778">
        <ele>151</ele>
        <time>2013-07-30T17:35:38Z</time>
      </trkpt>
      <trkpt lat="48.62812" lon="2.06744">
        <ele>152</ele>
        <time>2013-07-30T17:35:48Z</time>
      </trkpt>
      <trkpt lat="48.62807" lon="2.067">
        <ele>152</ele>
        <time>2013-07-30T17:35:58Z</time>
      </trkpt>
      <trkpt lat="48.62806" lon="2.06692">
        <ele>152</ele>
        <time>2013-07-30T17:36:00Z</time>
      </trkpt>
      <trkpt lat="48.62805" lon="2.06669">
        <ele>152</ele>
        <time>2013-07-30T17:36:06Z</time>
      </trkpt>
      <trkpt lat="48.62804" lon="2.0664">
        <ele>153</ele>
        <time>2013-07-30T17:36:14Z</time>
      </trkpt>
      <trkpt lat="48.62806" lon="2.06627">
        <ele>153</ele>
        <time>2013-07-30T17:36:18Z</time>
      </trkpt>
      <trkpt lat="48.62805" lon="2.06603">
        <ele>153</ele>
        <time>2013-07-30T17:36:24Z</time>
      </trkpt>
      <trkpt lat="48.62802" lon="2.06561">
        <ele>154</ele>
        <time>2013-07-30T17:36:35Z</time>
      </trkpt>
      <trkpt lat="48.62801" lon="2.06518">
        <ele>154</ele>
        <time>2013-07-30T17:36:47Z</time>
      </trkpt>
      <trkpt lat="48.62799" lon="2.06495">
        <ele>155</ele>
        <time>2013-07-30T17:36:53Z</time>
      </trkpt>
      <trkpt lat="48.62798" lon="2.0648">
        <ele>155</ele>
        <time>2013-07-30T17:36:57Z</time>
      </trkpt>
      <trkpt lat="48.62798" lon="2.06468">
        <ele>155</ele>
        <time>2013-07-30T17:37:01Z</time>
      </trkpt>
      <trkpt lat="48.62796" lon="2.06427">
        <ele>156</ele>
        <time>2013-07-30T17:37:13Z</time>
      </trkpt>
      <trkpt lat="48.62795" lon="2.06372">
        <ele>156</ele>
        <time>2013-07-30T17:37:29Z</time>
      </trkpt>
      <trkpt lat="48.6279" lon="2.063">
        <ele>156</ele>
        <time>2013-07-30T17:37:49Z</time>
      </trkpt>
      <trkpt lat="48.62788" lon="2.06239">
        <ele>157</ele>
        <time>2013-07-30T17:38:05Z</time>
      </trkpt>
      <trkpt lat="48.62784" lon="2.0617">
        <ele>158</ele>
        <time>2013-07-30T17:38:23Z</time>
      </trkpt>
      <trkpt lat="48.62783" lon="2.06154">
        <ele>158</ele>
        <time>2013-07-30T17:38:27Z</time>
      </trkpt>
      <trkpt lat="48.62782" lon="2.06138">
        <ele>158</ele>
        <time>2013-07-30T17:38:31Z</time>
      </trkpt>
      <trkpt lat="48.62782" lon="2.06123">
        <ele>159</ele>
        <time>2013-07-30T17:38:35Z</time>
      </trkpt>
      <trkpt lat="48.6278" lon="2.06088">
        <ele>159</ele>
        <time>2013-07-30T17:38:44Z</time>
      </trkpt>
      <trkpt lat="48.62778" lon="2.0606">
        <ele>160</ele>
        <time>2013-07-30T17:38:52Z</time>
      </trkpt>
      <trkpt lat="48.62777" lon="2.06043">
        <ele>160</ele>
        <time>2013-07-30T17:38:56Z</time>
      </trkpt>
      <trkpt lat="48.62777" lon="2.06009">
        <ele>160</ele>
        <time>2013-07-30T17:39:04Z</time>
      </trkpt>
      <trkpt lat="48.62774" lon="2.05956">
        <ele>161</ele>
        <time>2013-07-30T17:39:18Z</time>
      </trkpt>
      <trkpt lat="48.62775" lon="2.05938">
        <ele>161</ele>
        <time>2013-07-30T17:39:24Z</time>
      </trkpt>
      <trkpt lat="48.62772" lon="2.05877">
        <ele>163</ele>
        <time>2013-07-30T17:39:42Z</time>
      </trkpt>
      <trkpt lat="48.62768" lon="2.05853">
        <ele>163</ele>
        <time>2013-07-30T17:39:48Z</time>
      </trkpt>
      <trkpt lat="48.62762" lon="2.05825">
        <ele>165</ele>
        <time>2013-07-30T17:39:56Z</time>
      </trkpt>
      <trkpt lat="48.62757" lon="2.05811">
        <ele>165</ele>
        <time>2013-07-30T17:40:00Z</time>
      </trkpt>
      <trkpt lat="48.62747" lon="2.05782">
        <ele>164</ele>
        <time>2013-07-30T17:40:08Z</time>
      </trkpt>
      <trkpt lat="48.62736" lon="2.05751">
        <ele>165</ele>
        <time>2013-07-30T17:40:16Z</time>
      </trkpt>
      <trkpt lat="48.62734" lon="2.05735">
        <ele>165</ele>
        <time>2013-07-30T17:40:20Z</time>
      </trkpt>
      <trkpt lat="48.62738" lon="2.05721">
        <ele>165</ele>
        <time>2013-07-30T17:40:24Z</time>
      </trkpt>
      <trkpt lat="48.6274" lon="2.05706">
        <ele>165</ele>
        <time>2013-07-30T17:40:28Z</time>
      </trkpt>
      <trkpt lat="48.62747" lon="2.05683">
        <ele>165</ele>
        <time>2013-07-30T17:40:34Z</time>
      </trkpt>
      <trkpt lat="48.62755" lon="2.05663">
        <ele>166</ele>
        <time>2013-07-30T17:40:40Z</time>
      </trkpt>
      <trkpt lat="48.62766" lon="2.05645">
        <ele>167</ele>
        <time>2013-07-30T17:40:46Z</time>
      </trkpt>
      <trkpt lat="48.62768" lon="2.05629">
        <ele>167</ele>
        <time>2013-07-30T17:40:50Z</time>
      </trkpt>
      <trkpt lat="48.62766" lon="2.05597">
        <ele>167</ele>
        <time>2013-07-30T17:40:58Z</time>
      </trkpt>
      <trkpt lat="48.6277" lon="2.05558">
        <ele>166</ele>
        <time>2013-07-30T17:41:08Z</time>
      </trkpt>
      <trkpt lat="48.62769" lon="2.05549">
        <ele>166</ele>
        <time>2013-07-30T17:41:10Z</time>
      </trkpt>
      <trkpt lat="48.62762" lon="2.05506">
        <ele>165</ele>
        <time>2013-07-30T17:41:20Z</time>
      </trkpt>
      <trkpt lat="48.62747" lon="2.05451">
        <ele>162</ele>
        <time>2013-07-30T17:41:34Z</time>
      </trkpt>
      <trkpt lat="48.62746" lon="2.05442">
        <ele>162</ele>
        <time>2013-07-30T17:41:36Z</time>
      </trkpt>
      <trkpt lat="48.62759" lon="2.05385">
        <ele>161</ele>
        <time>2013-07-30T17:41:52Z</time>
      </trkpt>
      <trkpt lat="48.62758" lon="2.05366">
        <ele>160</ele>
        <time>2013-07-30T17:41:56Z</time>
      </trkpt>
      <trkpt lat="48.62758" lon="2.05346">
        <ele>159</ele>
        <time>2013-07-30T17:42:12Z</time>
      </trkpt>
      <trkpt lat="48.62747" lon="2.0533">
        <ele>157</ele>
        <time>2013-07-30T17:42:26Z</time>
      </trkpt>
      <trkpt lat="48.62739" lon="2.05316">
        <ele>156</ele>
        <time>2013-07-30T17:42:30Z</time>
      </trkpt>
      <trkpt lat="48.62735" lon="2.05309">
        <ele>156</ele>
        <time>2013-07-30T17:42:32Z</time>
      </trkpt>
      <trkpt lat="48.62697" lon="2.05255">
        <ele>154</ele>
        <time>2013-07-30T17:42:50Z</time>
      </trkpt>
      <trkpt lat="48.62678" lon="2.05222">
        <ele>149</ele>
        <time>2013-07-30T17:43:00Z</time>
      </trkpt>
      <trkpt lat="48.62674" lon="2.05215">
        <ele>149</ele>
        <time>2013-07-30T17:43:02Z</time>
      </trkpt>
      <trkpt lat="48.62668" lon="2.052">
        <ele>148</ele>
        <time>2013-07-30T17:43:06Z</time>
      </trkpt>
      <trkpt lat="48.62654" lon="2.05181">
        <ele>144</ele>
        <time>2013-07-30T17:43:14Z</time>
      </trkpt>
      <trkpt lat="48.62648" lon="2.05172">
        <ele>144</ele>
        <time>2013-07-30T17:43:18Z</time>
      </trkpt>
      <trkpt lat="48.62645" lon="2.05163">
        <ele>141</ele>
        <time>2013-07-30T17:43:20Z</time>
      </trkpt>
      <trkpt lat="48.62641" lon="2.05127">
        <ele>140</ele>
        <time>2013-07-30T17:43:26Z</time>
      </trkpt>
      <trkpt lat="48.62631" lon="2.05097">
        <ele>139</ele>
        <time>2013-07-30T17:43:32Z</time>
      </trkpt>
      <trkpt lat="48.62631" lon="2.05082">
        <ele>136</ele>
        <time>2013-07-30T17:43:36Z</time>
      </trkpt>
      <trkpt lat="48.62634" lon="2.05074">
        <ele>136</ele>
        <time>2013-07-30T17:43:40Z</time>
      </trkpt>
      <trkpt lat="48.62638" lon="2.05071">
        <ele>136</ele>
        <time>2013-07-30T17:43:42Z</time>
      </trkpt>
      <trkpt lat="48.62644" lon="2.05071">
        <ele>136</ele>
        <time>2013-07-30T17:43:44Z</time>
      </trkpt>
      <trkpt lat="48.6267" lon="2.05077">
        <ele>137</ele>
        <time>2013-07-30T17:43:52Z</time>
      </trkpt>
      <trkpt lat="48.62691" lon="2.05085">
        <ele>140</ele>
        <time>2013-07-30T17:44:00Z</time>
      </trkpt>
      <trkpt lat="48.62711" lon="2.05099">
        <ele>140</ele>
        <time>2013-07-30T17:44:08Z</time>
      </trkpt>
      <trkpt lat="48.62723" lon="2.05104">
        <ele>140</ele>
        <time>2013-07-30T17:44:12Z</time>
      </trkpt>
      <trkpt lat="48.62764" lon="2.05112">
        <ele>142</ele>
        <time>2013-07-30T17:44:28Z</time>
      </trkpt>
      <trkpt lat="48.62768" lon="2.05111">
        <ele>142</ele>
        <time>2013-07-30T17:44:30Z</time>
      </trkpt>
      <trkpt lat="48.62773" lon="2.05108">
        <ele>142</ele>
        <time>2013-07-30T17:44:32Z</time>
      </trkpt>
      <trkpt lat="48.62787" lon="2.05093">
        <ele>142</ele>
        <time>2013-07-30T17:44:38Z</time>
      </trkpt>
      <trkpt lat="48.62791" lon="2.05088">
        <ele>143</ele>
        <time>2013-07-30T17:44:40Z</time>
      </trkpt>
      <trkpt lat="48.62802" lon="2.05054">
        <ele>137</ele>
        <time>2013-07-30T17:44:48Z</time>
      </trkpt>
      <trkpt lat="48.6281" lon="2.05013">
        <ele>136</ele>
        <time>2013-07-30T17:44:58Z</time>
      </trkpt>
      <trkpt lat="48.62811" lon="2.04996">
        <ele>133</ele>
        <time>2013-07-30T17:45:02Z</time>
      </trkpt>
      <trkpt lat="48.62814" lon="2.04981">
        <ele>133</ele>
        <time>2013-07-30T17:45:06Z</time>
      </trkpt>
      <trkpt lat="48.62822" lon="2.04962">
        <ele>133</ele>
        <time>2013-07-30T17:45:12Z</time>
      </trkpt>
      <trkpt lat="48.6284" lon="2.04904">
        <ele>133</ele>
        <time>2013-07-30T17:45:28Z</time>
      </trkpt>
      <trkpt lat="48.62853" lon="2.04878">
        <ele>132</ele>
        <time>2013-07-30T17:45:36Z</time>
      </trkpt>
      <trkpt lat="48.62858" lon="2.04872">
        <ele>132</ele>
        <time>2013-07-30T17:45:38Z</time>
      </trkpt>
      <trkpt lat="48.62869" lon="2.04863">
        <ele>132</ele>
        <time>2013-07-30T17:45:42Z</time>
      </trkpt>
      <trkpt lat="48.62892" lon="2.04853">
        <ele>131</ele>
        <time>2013-07-30T17:45:50Z</time>
      </trkpt>
      <trkpt lat="48.62914" lon="2.04849">
        <ele>131</ele>
        <time>2013-07-30T17:45:58Z</time>
      </trkpt>
      <trkpt lat="48.62946" lon="2.04839">
        <ele>132</ele>
        <time>2013-07-30T17:46:10Z</time>
      </trkpt>
      <trkpt lat="48.62956" lon="2.04832">
        <ele>130</ele>
        <time>2013-07-30T17:46:14Z</time>
      </trkpt>
      <trkpt lat="48.6296" lon="2.04826">
        <ele>131</ele>
        <time>2013-07-30T17:46:16Z</time>
      </trkpt>
      <trkpt lat="48.62962" lon="2.04818">
        <ele>131</ele>
        <time>2013-07-30T17:46:18Z</time>
      </trkpt>
      <trkpt lat="48.62962" lon="2.04799">
        <ele>130</ele>
        <time>2013-07-30T17:46:22Z</time>
      </trkpt>
      <trkpt lat="48.62959" lon="2.04749">
        <ele>130</ele>
        <time>2013-07-30T17:46:34Z</time>
      </trkpt>
      <trkpt lat="48.6296" lon="2.04719">
        <ele>130</ele>
        <time>2013-07-30T17:46:42Z</time>
      </trkpt>
      <trkpt lat="48.62953" lon="2.0469">
        <ele>130</ele>
        <time>2013-07-30T17:46:50Z</time>
      </trkpt>
      <trkpt lat="48.62947" lon="2.04677">
        <ele>130</ele>
        <time>2013-07-30T17:46:54Z</time>
      </trkpt>
      <trkpt lat="48.62935" lon="2.04662">
        <ele>131</ele>
        <time>2013-07-30T17:47:00Z</time>
      </trkpt>
      <trkpt lat="48.62913" lon="2.04636">
        <ele>130</ele>
        <time>2013-07-30T17:47:10Z</time>
      </trkpt>
      <trkpt lat="48.62911" lon="2.04628">
        <ele>130</ele>
        <time>2013-07-30T17:47:12Z</time>
      </trkpt>
      <trkpt lat="48.62913" lon="2.04616">
        <ele>130</ele>
        <time>2013-07-30T17:47:16Z</time>
      </trkpt>
      <trkpt lat="48.62929" lon="2.04569">
        <ele>133</ele>
        <time>2013-07-30T17:47:30Z</time>
      </trkpt>
      <trkpt lat="48.62944" lon="2.04532">
        <ele>135</ele>
        <time>2013-07-30T17:47:42Z</time>
      </trkpt>
      <trkpt lat="48.62972" lon="2.04455">
        <ele>140</ele>
        <time>2013-07-30T17:48:06Z</time>
      </trkpt>
      <trkpt lat="48.63002" lon="2.04391">
        <ele>147</ele>
        <time>2013-07-30T17:48:26Z</time>
      </trkpt>
      <trkpt lat="48.63008" lon="2.04379">
        <ele>148</ele>
        <time>2013-07-30T17:48:32Z</time>
      </trkpt>
      <trkpt lat="48.6301" lon="2.04368">
        <ele>149</ele>
        <time>2013-07-30T17:48:36Z</time>
      </trkpt>
      <trkpt lat="48.63026" lon="2.04339">
        <ele>150</ele>
        <time>2013-07-30T17:48:46Z</time>
      </trkpt>
      <trkpt lat="48.63054" lon="2.04264">
        <ele>154</ele>
        <time>2013-07-30T17:49:08Z</time>
      </trkpt>
      <trkpt lat="48.63077" lon="2.04215">
        <ele>154</ele>
        <time>2013-07-30T17:49:26Z</time>
      </trkpt>
      <trkpt lat="48.6308" lon="2.04206">
        <ele>154</ele>
        <time>2013-07-30T17:49:30Z</time>
      </trkpt>
      <trkpt lat="48.63085" lon="2.04202">
        <ele>155</ele>
        <time>2013-07-30T17:49:34Z</time>
      </trkpt>
      <trkpt lat="48.631" lon="2.04181">
        <ele>155</ele>
        <time>2013-07-30T17:49:44Z</time>
      </trkpt>
      <trkpt lat="48.63124" lon="2.04174">
        <ele>155</ele>
        <time>2013-07-30T17:49:54Z</time>
      </trkpt>
      <trkpt lat="48.63128" lon="2.04174">
        <ele>155</ele>
        <time>2013-07-30T17:49:56Z</time>
      </trkpt>
      <trkpt lat="48.63132" lon="2.04177">
        <ele>155</ele>
        <time>2013-07-30T17:50:00Z</time>
      </trkpt>
      <trkpt lat="48.63155" lon="2.04172">
        <ele>156</ele>
        <time>2013-07-30T17:50:08Z</time>
      </trkpt>
      <trkpt lat="48.63165" lon="2.04165">
        <ele>156</ele>
        <time>2013-07-30T17:50:12Z</time>
      </trkpt>
      <trkpt lat="48.63171" lon="2.04154">
        <ele>157</ele>
        <time>2013-07-30T17:50:16Z</time>
      </trkpt>
      <trkpt lat="48.6318" lon="2.04131">
        <ele>158</ele>
        <time>2013-07-30T17:50:22Z</time>
      </trkpt>
      <trkpt lat="48.63183" lon="2.04115">
        <ele>158</ele>
        <time>2013-07-30T17:50:26Z</time>
      </trkpt>
      <trkpt lat="48.63183" lon="2.04062">
        <ele>160</ele>
        <time>2013-07-30T17:50:40Z</time>
      </trkpt>
      <trkpt lat="48.63184" lon="2.04039">
        <ele>161</ele>
        <time>2013-07-30T17:50:46Z</time>
      </trkpt>
      <trkpt lat="48.63188" lon="2.04023">
        <ele>161</ele>
        <time>2013-07-30T17:50:50Z</time>
      </trkpt>
      <trkpt lat="48.63194" lon="2.03981">
        <ele>163</ele>
        <time>2013-07-30T17:51:00Z</time>
      </trkpt>
      <trkpt lat="48.63202" lon="2.03951">
        <ele>164</ele>
        <time>2013-07-30T17:51:08Z</time>
      </trkpt>
      <trkpt lat="48.63209" lon="2.03922">
        <ele>165</ele>
        <time>2013-07-30T17:51:16Z</time>
      </trkpt>
      <trkpt lat="48.63211" lon="2.03915">
        <ele>166</ele>
        <time>2013-07-30T17:51:18Z</time>
      </trkpt>
      <trkpt lat="48.63225" lon="2.03893">
        <ele>167</ele>
        <time>2013-07-30T17:51:26Z</time>
      </trkpt>
      <trkpt lat="48.6324" lon="2.03872">
        <ele>168</ele>
        <time>2013-07-30T17:51:34Z</time>
      </trkpt>
      <trkpt lat="48.6325" lon="2.03858">
        <ele>171</ele>
        <time>2013-07-30T17:51:40Z</time>
      </trkpt>
      <trkpt lat="48.63257" lon="2.03846">
        <ele>171</ele>
        <time>2013-07-30T17:51:44Z</time>
      </trkpt>
      <trkpt lat="48.63262" lon="2.03826">
        <ele>171</ele>
        <time>2013-07-30T17:51:50Z</time>
      </trkpt>
      <trkpt lat="48.63263" lon="2.03818">
        <ele>171</ele>
        <time>2013-07-30T17:51:52Z</time>
      </trkpt>
      <trkpt lat="48.63263" lon="2.03813">
        <ele>171</ele>
        <time>2013-07-30T17:51:54Z</time>
      </trkpt>
      <trkpt lat="48.63262" lon="2.03813">
        <ele>171</ele>
        <time>2013-07-30T17:51:56Z</time>
      </trkpt>
      <trkpt lat="48.63263" lon="2.03819">
        <ele>171</ele>
        <time>2013-07-30T17:51:58Z</time>
      </trkpt>
      <trkpt lat="48.63283" lon="2.03855">
        <ele>171</ele>
        <time>2013-07-30T17:52:08Z</time>
      </trkpt>
      <trkpt lat="48.63313" lon="2.03915">
        <ele>171</ele>
        <time>2013-07-30T17:52:24Z</time>
      </trkpt>
      <trkpt lat="48.63327" lon="2.03952">
        <ele>169</ele>
        <time>2013-07-30T17:52:34Z</time>
      </trkpt>
      <trkpt lat="48.63342" lon="2.03989">
        <ele>169</ele>
        <time>2013-07-30T17:52:44Z</time>
      </trkpt>
      <trkpt lat="48.63354" lon="2.0403">
        <ele>166</ele>
        <time>2013-07-30T17:52:54Z</time>
      </trkpt>
      <trkpt lat="48.63368" lon="2.04084">
        <ele>163</ele>
        <time>2013-07-30T17:53:06Z</time>
      </trkpt>
      <trkpt lat="48.63376" lon="2.04139">
        <ele>162</ele>
        <time>2013-07-30T17:53:18Z</time>
      </trkpt>
      <trkpt lat="48.63379" lon="2.04156">
        <ele>162</ele>
        <time>2013-07-30T17:53:22Z</time>
      </trkpt>
      <trkpt lat="48.6338" lon="2.04165">
        <ele>162</ele>
        <time>2013-07-30T17:53:24Z</time>
      </trkpt>
      <trkpt lat="48.63382" lon="2.04174">
        <ele>159</ele>
        <time>2013-07-30T17:53:26Z</time>
      </trkpt>
      <trkpt lat="48.63388" lon="2.04191">
        <ele>159</ele>
        <time>2013-07-30T17:53:30Z</time>
      </trkpt>
      <trkpt lat="48.63416" lon="2.04254">
        <ele>156</ele>
        <time>2013-07-30T17:53:46Z</time>
      </trkpt>
      <trkpt lat="48.63426" lon="2.04274">
        <ele>155</ele>
        <time>2013-07-30T17:53:52Z</time>
      </trkpt>
      <trkpt lat="48.63434" lon="2.04286">
        <ele>155</ele>
        <time>2013-07-30T17:53:56Z</time>
      </trkpt>
      <trkpt lat="48.63444" lon="2.04306">
        <ele>154</ele>
        <time>2013-07-30T17:54:02Z</time>
      </trkpt>
      <trkpt lat="48.63452" lon="2.04329">
        <ele>154</ele>
        <time>2013-07-30T17:54:08Z</time>
      </trkpt>
      <trkpt lat="48.63466" lon="2.04358">
        <ele>151</ele>
        <time>2013-07-30T17:54:16Z</time>
      </trkpt>
      <trkpt lat="48.63474" lon="2.0438">
        <ele>150</ele>
        <time>2013-07-30T17:54:22Z</time>
      </trkpt>
      <trkpt lat="48.63495" lon="2.04421">
        <ele>148</ele>
        <time>2013-07-30T17:54:34Z</time>
      </trkpt>
      <trkpt lat="48.63503" lon="2.04434">
        <ele>148</ele>
        <time>2013-07-30T17:54:38Z</time>
      </trkpt>
      <trkpt lat="48.63517" lon="2.04449">
        <ele>147</ele>
        <time>2013-07-30T17:54:44Z</time>
      </trkpt>
      <trkpt lat="48.63553" lon="2.04479">
        <ele>147</ele>
        <time>2013-07-30T17:54:58Z</time>
      </trkpt>
      <trkpt lat="48.63559" lon="2.04484">
        <ele>147</ele>
        <time>2013-07-30T17:55:00Z</time>
      </trkpt>
      <trkpt lat="48.63572" lon="2.04504">
        <ele>146</ele>
        <time>2013-07-30T17:55:06Z</time>
      </trkpt>
      <trkpt lat="48.63581" lon="2.04527">
        <ele>145</ele>
        <time>2013-07-30T17:55:12Z</time>
      </trkpt>
      <trkpt lat="48.63591" lon="2.04567">
        <ele>145</ele>
        <time>2013-07-30T17:55:22Z</time>
      </trkpt>
      <trkpt lat="48.63596" lon="2.04581">
        <ele>145</ele>
        <time>2013-07-30T17:55:26Z</time>
      </trkpt>
      <trkpt lat="48.63606" lon="2.04618">
        <ele>144</ele>
        <time>2013-07-30T17:55:36Z</time>
      </trkpt>
      <trkpt lat="48.63609" lon="2.04631">
        <ele>144</ele>
        <time>2013-07-30T17:55:40Z</time>
      </trkpt>
      <trkpt lat="48.63613" lon="2.04652">
        <ele>144</ele>
        <time>2013-07-30T17:55:46Z</time>
      </trkpt>
      <trkpt lat="48.63628" lon="2.04692">
        <ele>144</ele>
        <time>2013-07-30T17:55:58Z</time>
      </trkpt>
      <trkpt lat="48.63629" lon="2.04706">
        <ele>144</ele>
        <time>2013-07-30T17:56:02Z</time>
      </trkpt>
      <trkpt lat="48.63637" lon="2.04724">
        <ele>144</ele>
        <time>2013-07-30T17:56:08Z</time>
      </trkpt>
      <trkpt lat="48.63646" lon="2.0474">
        <ele>144</ele>
        <time>2013-07-30T17:56:14Z</time>
      </trkpt>
      <trkpt lat="48.63657" lon="2.04756">
        <ele>146</ele>
        <time>2013-07-30T17:56:20Z</time>
      </trkpt>
      <trkpt lat="48.6367" lon="2.04768">
        <ele>147</ele>
        <time>2013-07-30T17:56:26Z</time>
      </trkpt>
      <trkpt lat="48.63677" lon="2.04775">
        <ele>148</ele>
        <time>2013-07-30T17:56:30Z</time>
      </trkpt>
      <trkpt lat="48.63694" lon="2.0479">
        <ele>148</ele>
        <time>2013-07-30T17:56:38Z</time>
      </trkpt>
      <trkpt lat="48.63702" lon="2.04798">
        <ele>149</ele>
        <time>2013-07-30T17:56:42Z</time>
      </trkpt>
      <trkpt lat="48.63718" lon="2.0481">
        <ele>149</ele>
        <time>2013-07-30T17:56:50Z</time>
      </trkpt>
      <trkpt lat="48.63722" lon="2.04812">
        <ele>149</ele>
        <time>2013-07-30T17:56:52Z</time>
      </trkpt>
      <trkpt lat="48.63738" lon="2.04814">
        <ele>149</ele>
        <time>2013-07-30T17:56:58Z</time>
      </trkpt>
      <trkpt lat="48.63752" lon="2.04809">
        <ele>150</ele>
        <time>2013-07-30T17:57:04Z</time>
      </trkpt>
      <trkpt lat="48.63762" lon="2.0481">
        <ele>150</ele>
        <time>2013-07-30T17:57:08Z</time>
      </trkpt>
      <trkpt lat="48.63783" lon="2.04816">
        <ele>150</ele>
        <time>2013-07-30T17:57:16Z</time>
      </trkpt>
      <trkpt lat="48.63786" lon="2.04817">
        <ele>150</ele>
        <time>2013-07-30T17:57:18Z</time>
      </trkpt>
      <trkpt lat="48.63796" lon="2.04829">
        <ele>150</ele>
        <time>2013-07-30T17:57:24Z</time>
      </trkpt>
      <trkpt lat="48.63799" lon="2.04839">
        <ele>155</ele>
        <time>2013-07-30T17:57:28Z</time>
      </trkpt>
      <trkpt lat="48.63808" lon="2.04856">
        <ele>155</ele>
        <time>2013-07-30T17:57:34Z</time>
      </trkpt>
      <trkpt lat="48.63811" lon="2.04869">
        <ele>156</ele>
        <time>2013-07-30T17:57:38Z</time>
      </trkpt>
      <trkpt lat="48.63822" lon="2.04898">
        <ele>158</ele>
        <time>2013-07-30T17:57:48Z</time>
      </trkpt>
      <trkpt lat="48.63837" lon="2.04925">
        <ele>162</ele>
        <time>2013-07-30T17:57:58Z</time>
      </trkpt>
      <trkpt lat="48.63838" lon="2.04931">
        <ele>162</ele>
        <time>2013-07-30T17:58:00Z</time>
      </trkpt>
      <trkpt lat="48.63846" lon="2.04956">
        <ele>164</ele>
        <time>2013-07-30T17:58:10Z</time>
      </trkpt>
      <trkpt lat="48.6384" lon="2.04987">
        <ele>166</ele>
        <time>2013-07-30T17:58:20Z</time>
      </trkpt>
      <trkpt lat="48.6384" lon="2.04995">
        <ele>166</ele>
        <time>2013-07-30T17:58:22Z</time>
      </trkpt>
      <trkpt lat="48.63847" lon="2.05025">
        <ele>169</ele>
        <time>2013-07-30T17:58:28Z</time>
      </trkpt>
      <trkpt lat="48.63847" lon="2.0505">
        <ele>170</ele>
        <time>2013-07-30T17:58:36Z</time>
      </trkpt>
      <trkpt lat="48.63858" lon="2.05083">
        <ele>172</ele>
        <time>2013-07-30T17:58:46Z</time>
      </trkpt>
      <trkpt lat="48.63858" lon="2.05097">
        <ele>172</ele>
        <time>2013-07-30T17:58:50Z</time>
      </trkpt>
      <trkpt lat="48.63861" lon="2.05103">
        <ele>172</ele>
        <time>2013-07-30T17:58:52Z</time>
      </trkpt>
      <trkpt lat="48.63866" lon="2.05136">
        <ele>172</ele>
        <time>2013-07-30T17:59:02Z</time>
      </trkpt>
      <trkpt lat="48.63865" lon="2.05149">
        <ele>172</ele>
        <time>2013-07-30T17:59:06Z</time>
      </trkpt>
      <trkpt lat="48.63867" lon="2.05158">
        <ele>172</ele>
        <time>2013-07-30T17:59:08Z</time>
      </trkpt>
      <trkpt lat="48.63879" lon="2.05188">
        <ele>171</ele>
        <time>2013-07-30T17:59:18Z</time>
      </trkpt>
      <trkpt lat="48.6389" lon="2.05221">
        <ele>171</ele>
        <time>2013-07-30T17:59:28Z</time>
      </trkpt>
      <trkpt lat="48.639" lon="2.05242">
        <ele>170</ele>
        <time>2013-07-30T17:59:34Z</time>
      </trkpt>
      <trkpt lat="48.63912" lon="2.05271">
        <ele>170</ele>
        <time>2013-07-30T17:59:42Z</time>
      </trkpt>
      <trkpt lat="48.63931" lon="2.05311">
        <ele>169</ele>
        <time>2013-07-30T17:59:52Z</time>
      </trkpt>
      <trkpt lat="48.63948" lon="2.05355">
        <ele>169</ele>
        <time>2013-07-30T18:00:06Z</time>
      </trkpt>
      <trkpt lat="48.63968" lon="2.05391">
        <ele>169</ele>
        <time>2013-07-30T18:00:18Z</time>
      </trkpt>
      <trkpt lat="48.63995" lon="2.05452">
        <ele>170</ele>
        <time>2013-07-30T18:00:38Z</time>
      </trkpt>
      <trkpt lat="48.64009" lon="2.05476">
        <ele>170</ele>
        <time>2013-07-30T18:00:46Z</time>
      </trkpt>
      <trkpt lat="48.64049" lon="2.05553">
        <ele>171</ele>
        <time>2013-07-30T18:01:10Z</time>
      </trkpt>
      <trkpt lat="48.64078" lon="2.05602">
        <ele>172</ele>
        <time>2013-07-30T18:01:26Z</time>
      </trkpt>
      <trkpt lat="48.64114" lon="2.05657">
        <ele>173</ele>
        <time>2013-07-30T18:01:44Z</time>
      </trkpt>
      <trkpt lat="48.64121" lon="2.0567">
        <ele>173</ele>
        <time>2013-07-30T18:01:48Z</time>
      </trkpt>
      <trkpt lat="48.64143" lon="2.05702">
        <ele>173</ele>
        <time>2013-07-30T18:01:59Z</time>
      </trkpt>
      <trkpt lat="48.64148" lon="2.05719">
        <ele>173</ele>
        <time>2013-07-30T18:02:05Z</time>
      </trkpt>
      <trkpt lat="48.64174" lon="2.05753">
        <ele>174</ele>
        <time>2013-07-30T18:02:17Z</time>
      </trkpt>
      <trkpt lat="48.64197" lon="2.05791">
        <ele>174</ele>
        <time>2013-07-30T18:02:31Z</time>
      </trkpt>
      <trkpt lat="48.64202" lon="2.05805">
        <ele>174</ele>
        <time>2013-07-30T18:02:35Z</time>
      </trkpt>
      <trkpt lat="48.64201" lon="2.05819">
        <ele>174</ele>
        <time>2013-07-30T18:02:39Z</time>
      </trkpt>
      <trkpt lat="48.64199" lon="2.05824">
        <ele>175</ele>
        <time>2013-07-30T18:02:41Z</time>
      </trkpt>
      <trkpt lat="48.64198" lon="2.0583">
        <ele>175</ele>
        <time>2013-07-30T18:02:43Z</time>
      </trkpt>
      <trkpt lat="48.64201" lon="2.05836">
        <ele>175</ele>
        <time>2013-07-30T18:02:45Z</time>
      </trkpt>
      <trkpt lat="48.64214" lon="2.05848">
        <ele>175</ele>
        <time>2013-07-30T18:02:51Z</time>
      </trkpt>
      <trkpt lat="48.64232" lon="2.05859">
        <ele>175</ele>
        <time>2013-07-30T18:02:57Z</time>
      </trkpt>
      <trkpt lat="48.64237" lon="2.05864">
        <ele>175</ele>
        <time>2013-07-30T18:02:59Z</time>
      </trkpt>
      <trkpt lat="48.64271" lon="2.05889">
        <ele>174</ele>
        <time>2013-07-30T18:03:11Z</time>
      </trkpt>
      <trkpt lat="48.64288" lon="2.05903">
        <ele>173</ele>
        <time>2013-07-30T18:03:17Z</time>
      </trkpt>
      <trkpt lat="48.64325" lon="2.05937">
        <ele>173</ele>
        <time>2013-07-30T18:03:31Z</time>
      </trkpt>
      <trkpt lat="48.64342" lon="2.05949">
        <ele>171</ele>
        <time>2013-07-30T18:03:37Z</time>
      </trkpt>
      <trkpt lat="48.64346" lon="2.05955">
        <ele>171</ele>
        <time>2013-07-30T18:03:39Z</time>
      </trkpt>
      <trkpt lat="48.64354" lon="2.05971">
        <ele>171</ele>
        <time>2013-07-30T18:03:43Z</time>
      </trkpt>
      <trkpt lat="48.64378" lon="2.05998">
        <ele>170</ele>
        <time>2013-07-30T18:03:55Z</time>
      </trkpt>
      <trkpt lat="48.64381" lon="2.0601">
        <ele>169</ele>
        <time>2013-07-30T18:04:05Z</time>
      </trkpt>
      <trkpt lat="48.64386" lon="2.06018">
        <ele>169</ele>
        <time>2013-07-30T18:04:11Z</time>
      </trkpt>
      <trkpt lat="48.64387" lon="2.06025">
        <ele>169</ele>
        <time>2013-07-30T18:04:13Z</time>
      </trkpt>
      <trkpt lat="48.64391" lon="2.06029">
        <ele>169</ele>
        <time>2013-07-30T18:04:15Z</time>
      </trkpt>
      <trkpt lat="48.64424" lon="2.0604">
        <ele>166</ele>
        <time>2013-07-30T18:04:27Z</time>
      </trkpt>
      <trkpt lat="48.6444" lon="2.06052">
        <ele>165</ele>
        <time>2013-07-30T18:04:33Z</time>
      </trkpt>
      <trkpt lat="48.64458" lon="2.06062">
        <ele>165</ele>
        <time>2013-07-30T18:04:39Z</time>
      </trkpt>
      <trkpt lat="48.64498" lon="2.06073">
        <ele>163</ele>
        <time>2013-07-30T18:04:53Z</time>
      </trkpt>
      <trkpt lat="48.64522" lon="2.06082">
        <ele>161</ele>
        <time>2013-07-30T18:05:01Z</time>
      </trkpt>
      <trkpt lat="48.64541" lon="2.06099">
        <ele>160</ele>
        <time>2013-07-30T18:05:11Z</time>
      </trkpt>
      <trkpt lat="48.64567" lon="2.06109">
        <ele>160</ele>
        <time>2013-07-30T18:05:19Z</time>
      </trkpt>
      <trkpt lat="48.64568" lon="2.06116">
        <ele>160</ele>
        <time>2013-07-30T18:05:21Z</time>
      </trkpt>
      <trkpt lat="48.64561" lon="2.06132">
        <ele>159</ele>
        <time>2013-07-30T18:05:25Z</time>
      </trkpt>
      <trkpt lat="48.64552" lon="2.06183">
        <ele>159</ele>
        <time>2013-07-30T18:05:35Z</time>
      </trkpt>
      <trkpt lat="48.64546" lon="2.06209">
        <ele>160</ele>
        <time>2013-07-30T18:05:41Z</time>
      </trkpt>
      <trkpt lat="48.6454" lon="2.06215">
        <ele>160</ele>
        <time>2013-07-30T18:05:43Z</time>
      </trkpt>
      <trkpt lat="48.64513" lon="2.0622">
        <ele>161</ele>
        <time>2013-07-30T18:05:51Z</time>
      </trkpt>
      <trkpt lat="48.64509" lon="2.06236">
        <ele>161</ele>
        <time>2013-07-30T18:05:55Z</time>
      </trkpt>
      <trkpt lat="48.64507" lon="2.06277">
        <ele>161</ele>
        <time>2013-07-30T18:06:03Z</time>
      </trkpt>
      <trkpt lat="48.64511" lon="2.06348">
        <ele>160</ele>
        <time>2013-07-30T18:06:17Z</time>
      </trkpt>
      <trkpt lat="48.6451" lon="2.06375">
        <ele>159</ele>
        <time>2013-07-30T18:06:23Z</time>
      </trkpt>
      <trkpt lat="48.64501" lon="2.0639">
        <ele>159</ele>
        <time>2013-07-30T18:06:29Z</time>
      </trkpt>
      <trkpt lat="48.64499" lon="2.06398">
        <ele>162</ele>
        <time>2013-07-30T18:06:31Z</time>
      </trkpt>
      <trkpt lat="48.6449" lon="2.06447">
        <ele>161</ele>
        <time>2013-07-30T18:06:43Z</time>
      </trkpt>
      <trkpt lat="48.6449" lon="2.06482">
        <ele>160</ele>
        <time>2013-07-30T18:06:51Z</time>
      </trkpt>
      <trkpt lat="48.6448" lon="2.06555">
        <ele>160</ele>
        <time>2013-07-30T18:07:09Z</time>
      </trkpt>
      <trkpt lat="48.6448" lon="2.06571">
        <ele>160</ele>
        <time>2013-07-30T18:07:13Z</time>
      </trkpt>
      <trkpt lat="48.64478" lon="2.06605">
        <ele>159</ele>
        <time>2013-07-30T18:07:21Z</time>
      </trkpt>
      <trkpt lat="48.6448" lon="2.06654">
        <ele>158</ele>
        <time>2013-07-30T18:07:33Z</time>
      </trkpt>
      <trkpt lat="48.64477" lon="2.06696">
        <ele>157</ele>
        <time>2013-07-30T18:07:43Z</time>
      </trkpt>
      <trkpt lat="48.64477" lon="2.06721">
        <ele>157</ele>
        <time>2013-07-30T18:07:49Z</time>
      </trkpt>
      <trkpt lat="48.64478" lon="2.06758">
        <ele>156</ele>
        <time>2013-07-30T18:07:59Z</time>
      </trkpt>
      <trkpt lat="48.64482" lon="2.0677">
        <ele>156</ele>
        <time>2013-07-30T18:08:03Z</time>
      </trkpt>
      <trkpt lat="48.64478" lon="2.06799">
        <ele>157</ele>
        <time>2013-07-30T18:08:11Z</time>
      </trkpt>
      <trkpt lat="48.6448" lon="2.06813">
        <ele>156</ele>
        <time>2013-07-30T18:08:14Z</time>
      </trkpt>
      <trkpt lat="48.64485" lon="2.0683">
        <ele>156</ele>
        <time>2013-07-30T18:08:18Z</time>
      </trkpt>
      <trkpt lat="48.64514" lon="2.06908">
        <ele>152</ele>
        <time>2013-07-30T18:08:38Z</time>
      </trkpt>
      <trkpt lat="48.64523" lon="2.0694">
        <ele>150</ele>
        <time>2013-07-30T18:08:46Z</time>
      </trkpt>
      <trkpt lat="48.64523" lon="2.06958">
        <ele>149</ele>
        <time>2013-07-30T18:08:50Z</time>
      </trkpt>
      <trkpt lat="48.64525" lon="2.06965">
        <ele>149</ele>
        <time>2013-07-30T18:08:52Z</time>
      </trkpt>
      <trkpt lat="48.64533" lon="2.06975">
        <ele>149</ele>
        <time>2013-07-30T18:08:56Z</time>
      </trkpt>
      <trkpt lat="48.64537" lon="2.06983">
        <ele>149</ele>
        <time>2013-07-30T18:08:58Z</time>
      </trkpt>
      <trkpt lat="48.64541" lon="2.07">
        <ele>148</ele>
        <time>2013-07-30T18:09:02Z</time>
      </trkpt>
      <trkpt lat="48.64557" lon="2.0704">
        <ele>148</ele>
        <time>2013-07-30T18:09:12Z</time>
      </trkpt>
      <trkpt lat="48.64567" lon="2.07071">
        <ele>148</ele>
        <time>2013-07-30T18:09:20Z</time>
      </trkpt>
      <trkpt lat="48.64575" lon="2.07102">
        <ele>147</ele>
        <time>2013-07-30T18:09:28Z</time>
      </trkpt>
      <trkpt lat="48.64598" lon="2.07164">
        <ele>144</ele>
        <time>2013-07-30T18:09:44Z</time>
      </trkpt>
      <trkpt lat="48.64612" lon="2.07217">
        <ele>141</ele>
        <time>2013-07-30T18:09:58Z</time>
      </trkpt>
      <trkpt lat="48.64619" lon="2.0723">
        <ele>141</ele>
        <time>2013-07-30T18:10:02Z</time>
      </trkpt>
      <trkpt lat="48.64621" lon="2.07245">
        <ele>141</ele>
        <time>2013-07-30T18:10:06Z</time>
      </trkpt>
      <trkpt lat="48.64622" lon="2.0726">
        <ele>139</ele>
        <time>2013-07-30T18:10:10Z</time>
      </trkpt>
      <trkpt lat="48.64629" lon="2.07271">
        <ele>139</ele>
        <time>2013-07-30T18:10:14Z</time>
      </trkpt>
      <trkpt lat="48.64641" lon="2.07325">
        <ele>138</ele>
        <time>2013-07-30T18:10:28Z</time>
      </trkpt>
      <trkpt lat="48.64648" lon="2.07339">
        <ele>137</ele>
        <time>2013-07-30T18:10:32Z</time>
      </trkpt>
      <trkpt lat="48.64659" lon="2.0738">
        <ele>137</ele>
        <time>2013-07-30T18:10:42Z</time>
      </trkpt>
      <trkpt lat="48.64662" lon="2.07397">
        <ele>136</ele>
        <time>2013-07-30T18:10:46Z</time>
      </trkpt>
      <trkpt lat="48.6467" lon="2.07448">
        <ele>135</ele>
        <time>2013-07-30T18:10:58Z</time>
      </trkpt>
      <trkpt lat="48.64672" lon="2.07473">
        <ele>135</ele>
        <time>2013-07-30T18:11:04Z</time>
      </trkpt>
      <trkpt lat="48.64677" lon="2.07497">
        <ele>135</ele>
        <time>2013-07-30T18:11:10Z</time>
      </trkpt>
      <trkpt lat="48.64681" lon="2.07547">
        <ele>135</ele>
        <time>2013-07-30T18:11:22Z</time>
      </trkpt>
      <trkpt lat="48.64688" lon="2.0759">
        <ele>135</ele>
        <time>2013-07-30T18:11:34Z</time>
      </trkpt>
      <trkpt lat="48.64687" lon="2.07626">
        <ele>134</ele>
        <time>2013-07-30T18:11:42Z</time>
      </trkpt>
      <trkpt lat="48.64691" lon="2.07668">
        <ele>134</ele>
        <time>2013-07-30T18:11:52Z</time>
      </trkpt>
      <trkpt lat="48.64692" lon="2.0776">
        <ele>134</ele>
        <time>2013-07-30T18:12:14Z</time>
      </trkpt>
      <trkpt lat="48.6469" lon="2.07786">
        <ele>134</ele>
        <time>2013-07-30T18:12:20Z</time>
      </trkpt>
      <trkpt lat="48.6469" lon="2.07835">
        <ele>134</ele>
        <time>2013-07-30T18:12:32Z</time>
      </trkpt>
      <trkpt lat="48.64693" lon="2.0786">
        <ele>134</ele>
        <time>2013-07-30T18:12:38Z</time>
      </trkpt>
      <trkpt lat="48.64696" lon="2.07876">
        <ele>134</ele>
        <time>2013-07-30T18:12:42Z</time>
      </trkpt>
      <trkpt lat="48.64698" lon="2.07904">
        <ele>134</ele>
        <time>2013-07-30T18:12:48Z</time>
      </trkpt>
      <trkpt lat="48.64708" lon="2.07945">
        <ele>133</ele>
        <time>2013-07-30T18:12:58Z</time>
      </trkpt>
      <trkpt lat="48.64712" lon="2.0798">
        <ele>134</ele>
        <time>2013-07-30T18:13:06Z</time>
      </trkpt>
      <trkpt lat="48.64713" lon="2.08004">
        <ele>135</ele>
        <time>2013-07-30T18:13:12Z</time>
      </trkpt>
      <trkpt lat="48.64703" lon="2.08067">
        <ele>135</ele>
        <time>2013-07-30T18:13:26Z</time>
      </trkpt>
      <trkpt lat="48.64692" lon="2.08118">
        <ele>137</ele>
        <time>2013-07-30T18:13:38Z</time>
      </trkpt>
      <trkpt lat="48.6469" lon="2.08136">
        <ele>137</ele>
        <time>2013-07-30T18:13:42Z</time>
      </trkpt>
      <trkpt lat="48.64677" lon="2.08177">
        <ele>136</ele>
        <time>2013-07-30T18:13:52Z</time>
      </trkpt>
      <trkpt lat="48.64672" lon="2.082">
        <ele>138</ele>
        <time>2013-07-30T18:13:58Z</time>
      </trkpt>
      <trkpt lat="48.64672" lon="2.08207">
        <ele>138</ele>
        <time>2013-07-30T18:14:00Z</time>
      </trkpt>
      <trkpt lat="48.6468" lon="2.08235">
        <ele>137</ele>
        <time>2013-07-30T18:14:08Z</time>
      </trkpt>
      <trkpt lat="48.64681" lon="2.08242">
        <ele>137</ele>
        <time>2013-07-30T18:14:10Z</time>
      </trkpt>
      <trkpt lat="48.64682" lon="2.08254">
        <ele>137</ele>
        <time>2013-07-30T18:14:14Z</time>
      </trkpt>
      <trkpt lat="48.64679" lon="2.08278">
        <ele>139</ele>
        <time>2013-07-30T18:14:22Z</time>
      </trkpt>
      <trkpt lat="48.6468" lon="2.08288">
        <ele>139</ele>
        <time>2013-07-30T18:14:26Z</time>
      </trkpt>
      <trkpt lat="48.64682" lon="2.08298">
        <ele>140</ele>
        <time>2013-07-30T18:14:30Z</time>
      </trkpt>
      <trkpt lat="48.64687" lon="2.08306">
        <ele>140</ele>
        <time>2013-07-30T18:14:36Z</time>
      </trkpt>
      <trkpt lat="48.64684" lon="2.08305">
        <ele>140</ele>
        <time>2013-07-30T18:14:40Z</time>
      </trkpt>
      <trkpt lat="48.64679" lon="2.08311">
        <ele>139</ele>
        <time>2013-07-30T18:14:42Z</time>
      </trkpt>
      <trkpt lat="48.64678" lon="2.08322">
        <ele>138</ele>
        <time>2013-07-30T18:14:44Z</time>
      </trkpt>
      <trkpt lat="48.64679" lon="2.08332">
        <ele>137</ele>
        <time>2013-07-30T18:14:46Z</time>
      </trkpt>
      <trkpt lat="48.64681" lon="2.0838">
        <ele>141</ele>
        <time>2013-07-30T18:15:00Z</time>
      </trkpt>
      <trkpt lat="48.64677" lon="2.08402">
        <ele>139</ele>
        <time>2013-07-30T18:15:06Z</time>
      </trkpt>
      <trkpt lat="48.64678" lon="2.08407">
        <ele>139</ele>
        <time>2013-07-30T18:15:08Z</time>
      </trkpt>
      <trkpt lat="48.64672" lon="2.08441">
        <ele>142</ele>
        <time>2013-07-30T18:15:16Z</time>
      </trkpt>
      <trkpt lat="48.64666" lon="2.08453">
        <ele>135</ele>
        <time>2013-07-30T18:15:20Z</time>
      </trkpt>
      <trkpt lat="48.64658" lon="2.08463">
        <ele>135</ele>
        <time>2013-07-30T18:15:24Z</time>
      </trkpt>
      <trkpt lat="48.64654" lon="2.0847">
        <ele>135</ele>
        <time>2013-07-30T18:15:26Z</time>
      </trkpt>
      <trkpt lat="48.64641" lon="2.08501">
        <ele>137</ele>
        <time>2013-07-30T18:15:34Z</time>
      </trkpt>
      <trkpt lat="48.64631" lon="2.08521">
        <ele>136</ele>
        <time>2013-07-30T18:15:40Z</time>
      </trkpt>
      <trkpt lat="48.64628" lon="2.08531">
        <ele>136</ele>
        <time>2013-07-30T18:15:42Z</time>
      </trkpt>
      <trkpt lat="48.64619" lon="2.08567">
        <ele>135</ele>
        <time>2013-07-30T18:15:50Z</time>
      </trkpt>
      <trkpt lat="48.64618" lon="2.08576">
        <ele>135</ele>
        <time>2013-07-30T18:15:52Z</time>
      </trkpt>
      <trkpt lat="48.64613" lon="2.08593">
        <ele>136</ele>
        <time>2013-07-30T18:15:56Z</time>
      </trkpt>
      <trkpt lat="48.6461" lon="2.08613">
        <ele>136</ele>
        <time>2013-07-30T18:16:00Z</time>
      </trkpt>
      <trkpt lat="48.646" lon="2.08639">
        <ele>136</ele>
        <time>2013-07-30T18:16:08Z</time>
      </trkpt>
      <trkpt lat="48.64594" lon="2.08669">
        <ele>135</ele>
        <time>2013-07-30T18:16:16Z</time>
      </trkpt>
      <trkpt lat="48.64588" lon="2.08687">
        <ele>135</ele>
        <time>2013-07-30T18:16:20Z</time>
      </trkpt>
      <trkpt lat="48.64587" lon="2.08705">
        <ele>136</ele>
        <time>2013-07-30T18:16:24Z</time>
      </trkpt>
      <trkpt lat="48.64588" lon="2.08716">
        <ele>135</ele>
        <time>2013-07-30T18:16:28Z</time>
      </trkpt>
      <trkpt lat="48.64584" lon="2.08745">
        <ele>132</ele>
        <time>2013-07-30T18:16:34Z</time>
      </trkpt>
      <trkpt lat="48.64585" lon="2.0878">
        <ele>135</ele>
        <time>2013-07-30T18:16:42Z</time>
      </trkpt>
      <trkpt lat="48.64581" lon="2.08825">
        <ele>129</ele>
        <time>2013-07-30T18:16:50Z</time>
      </trkpt>
      <trkpt lat="48.6458" lon="2.0887">
        <ele>128</ele>
        <time>2013-07-30T18:17:00Z</time>
      </trkpt>
      <trkpt lat="48.64581" lon="2.08886">
        <ele>129</ele>
        <time>2013-07-30T18:17:04Z</time>
      </trkpt>
      <trkpt lat="48.64584" lon="2.08894">
        <ele>136</ele>
        <time>2013-07-30T18:17:06Z</time>
      </trkpt>
      <trkpt lat="48.64586" lon="2.08902">
        <ele>135</ele>
        <time>2013-07-30T18:17:08Z</time>
      </trkpt>
      <trkpt lat="48.64588" lon="2.08921">
        <ele>135</ele>
        <time>2013-07-30T18:17:14Z</time>
      </trkpt>
      <trkpt lat="48.64588" lon="2.0893">
        <ele>137</ele>
        <time>2013-07-30T18:17:18Z</time>
      </trkpt>
      <trkpt lat="48.64592" lon="2.08943">
        <ele>139</ele>
        <time>2013-07-30T18:17:22Z</time>
      </trkpt>
      <trkpt lat="48.64587" lon="2.08957">
        <ele>140</ele>
        <time>2013-07-30T18:17:26Z</time>
      </trkpt>
      <trkpt lat="48.64576" lon="2.08979">
        <ele>133</ele>
        <time>2013-07-30T18:17:32Z</time>
      </trkpt>
      <trkpt lat="48.64565" lon="2.08994">
        <ele>133</ele>
        <time>2013-07-30T18:17:38Z</time>
      </trkpt>
      <trkpt lat="48.64558" lon="2.09011">
        <ele>135</ele>
        <time>2013-07-30T18:17:44Z</time>
      </trkpt>
      <trkpt lat="48.64537" lon="2.09043">
        <ele>134</ele>
        <time>2013-07-30T18:17:56Z</time>
      </trkpt>
      <trkpt lat="48.64515" lon="2.09064">
        <ele>133</ele>
        <time>2013-07-30T18:18:06Z</time>
      </trkpt>
      <trkpt lat="48.64507" lon="2.09083">
        <ele>134</ele>
        <time>2013-07-30T18:18:12Z</time>
      </trkpt>
      <trkpt lat="48.64505" lon="2.09091">
        <ele>134</ele>
        <time>2013-07-30T18:18:14Z</time>
      </trkpt>
      <trkpt lat="48.64504" lon="2.09117">
        <ele>137</ele>
        <time>2013-07-30T18:18:20Z</time>
      </trkpt>
      <trkpt lat="48.64506" lon="2.09133">
        <ele>137</ele>
        <time>2013-07-30T18:18:24Z</time>
      </trkpt>
      <trkpt lat="48.64517" lon="2.09206">
        <ele>140</ele>
        <time>2013-07-30T18:18:46Z</time>
      </trkpt>
      <trkpt lat="48.6452" lon="2.0921">
        <ele>140</ele>
        <time>2013-07-30T18:18:48Z</time>
      </trkpt>
      <trkpt lat="48.64521" lon="2.09214">
        <ele>141</ele>
        <time>2013-07-30T18:18:50Z</time>
      </trkpt>
      <trkpt lat="48.64527" lon="2.0922">
        <ele>141</ele>
        <time>2013-07-30T18:18:54Z</time>
      </trkpt>
      <trkpt lat="48.64549" lon="2.09226">
        <ele>143</ele>
        <time>2013-07-30T18:19:00Z</time>
      </trkpt>
      <trkpt lat="48.64568" lon="2.09225">
        <ele>145</ele>
        <time>2013-07-30T18:19:08Z</time>
      </trkpt>
      <trkpt lat="48.64566" lon="2.09242">
        <ele>146</ele>
        <time>2013-07-30T18:19:14Z</time>
      </trkpt>
      <trkpt lat="48.64567" lon="2.09257">
        <ele>146</ele>
        <time>2013-07-30T18:19:18Z</time>
      </trkpt>
      <trkpt lat="48.64565" lon="2.09271">
        <ele>145</ele>
        <time>2013-07-30T18:19:22Z</time>
      </trkpt>
      <trkpt lat="48.64559" lon="2.09305">
        <ele>145</ele>
        <time>2013-07-30T18:19:32Z</time>
      </trkpt>
      <trkpt lat="48.64557" lon="2.09331">
        <ele>145</ele>
        <time>2013-07-30T18:19:38Z</time>
      </trkpt>
      <trkpt lat="48.64556" lon="2.09361">
        <ele>146</ele>
        <time>2013-07-30T18:19:48Z</time>
      </trkpt>
      <trkpt lat="48.64557" lon="2.09368">
        <ele>147</ele>
        <time>2013-07-30T18:19:50Z</time>
      </trkpt>
      <trkpt lat="48.64555" lon="2.09383">
        <ele>147</ele>
        <time>2013-07-30T18:19:54Z</time>
      </trkpt>
      <trkpt lat="48.64556" lon="2.09397">
        <ele>148</ele>
        <time>2013-07-30T18:19:58Z</time>
      </trkpt>
      <trkpt lat="48.64555" lon="2.09405">
        <ele>148</ele>
        <time>2013-07-30T18:20:00Z</time>
      </trkpt>
      <trkpt lat="48.64536" lon="2.09463">
        <ele>149</ele>
        <time>2013-07-30T18:20:16Z</time>
      </trkpt>
      <trkpt lat="48.64519" lon="2.0948">
        <ele>149</ele>
        <time>2013-07-30T18:20:26Z</time>
      </trkpt>
      <trkpt lat="48.64511" lon="2.0949">
        <ele>149</ele>
        <time>2013-07-30T18:20:30Z</time>
      </trkpt>
      <trkpt lat="48.64494" lon="2.09509">
        <ele>148</ele>
        <time>2013-07-30T18:20:38Z</time>
      </trkpt>
      <trkpt lat="48.6448" lon="2.09534">
        <ele>145</ele>
        <time>2013-07-30T18:20:46Z</time>
      </trkpt>
      <trkpt lat="48.64473" lon="2.09544">
        <ele>145</ele>
        <time>2013-07-30T18:20:50Z</time>
      </trkpt>
      <trkpt lat="48.64459" lon="2.09583">
        <ele>146</ele>
        <time>2013-07-30T18:21:00Z</time>
      </trkpt>
      <trkpt lat="48.64454" lon="2.09619">
        <ele>145</ele>
        <time>2013-07-30T18:21:08Z</time>
      </trkpt>
      <trkpt lat="48.64445" lon="2.09639">
        <ele>145</ele>
        <time>2013-07-30T18:21:14Z</time>
      </trkpt>
      <trkpt lat="48.64434" lon="2.09674">
        <ele>144</ele>
        <time>2013-07-30T18:21:22Z</time>
      </trkpt>
      <trkpt lat="48.64434" lon="2.09702">
        <ele>145</ele>
        <time>2013-07-30T18:21:30Z</time>
      </trkpt>
      <trkpt lat="48.64436" lon="2.09716">
        <ele>145</ele>
        <time>2013-07-30T18:21:34Z</time>
      </trkpt>
      <trkpt lat="48.64437" lon="2.09737">
        <ele>145</ele>
        <time>2013-07-30T18:21:40Z</time>
      </trkpt>
      <trkpt lat="48.64435" lon="2.09747">
        <ele>144</ele>
        <time>2013-07-30T18:21:44Z</time>
      </trkpt>
      <trkpt lat="48.6443" lon="2.09758">
        <ele>144</ele>
        <time>2013-07-30T18:21:48Z</time>
      </trkpt>
      <trkpt lat="48.64424" lon="2.09759">
        <ele>143</ele>
        <time>2013-07-30T18:21:54Z</time>
      </trkpt>
      <trkpt lat="48.64423" lon="2.09762">
        <ele>143</ele>
        <time>2013-07-30T18:21:58Z</time>
      </trkpt>
      <trkpt lat="48.6442" lon="2.09762">
        <ele>143</ele>
        <time>2013-07-30T18:22:02Z</time>
      </trkpt>
      <trkpt lat="48.64417" lon="2.09766">
        <ele>143</ele>
        <time>2013-07-30T18:22:06Z</time>
      </trkpt>
      <trkpt lat="48.64412" lon="2.09765">
        <ele>141</ele>
        <time>2013-07-30T18:22:10Z</time>
      </trkpt>
      <trkpt lat="48.64405" lon="2.09755">
        <ele>141</ele>
        <time>2013-07-30T18:22:16Z</time>
      </trkpt>
      <trkpt lat="48.64403" lon="2.09748">
        <ele>141</ele>
        <time>2013-07-30T18:22:18Z</time>
      </trkpt>
      <trkpt lat="48.64394" lon="2.0973">
        <ele>139</ele>
        <time>2013-07-30T18:22:24Z</time>
      </trkpt>
      <trkpt lat="48.64378" lon="2.09711">
        <ele>138</ele>
        <time>2013-07-30T18:22:32Z</time>
      </trkpt>
      <trkpt lat="48.64359" lon="2.09699">
        <ele>137</ele>
        <time>2013-07-30T18:22:38Z</time>
      </trkpt>
      <trkpt lat="48.64354" lon="2.09702">
        <ele>137</ele>
        <time>2013-07-30T18:22:40Z</time>
      </trkpt>
      <trkpt lat="48.64349" lon="2.09712">
        <ele>137</ele>
        <time>2013-07-30T18:22:42Z</time>
      </trkpt>
      <trkpt lat="48.64332" lon="2.09761">
        <ele>133</ele>
        <time>2013-07-30T18:22:54Z</time>
      </trkpt>
      <trkpt lat="48.64327" lon="2.09775">
        <ele>132</ele>
        <time>2013-07-30T18:22:58Z</time>
      </trkpt>
      <trkpt lat="48.64319" lon="2.09795">
        <ele>132</ele>
        <time>2013-07-30T18:23:04Z</time>
      </trkpt>
      <trkpt lat="48.64316" lon="2.09817">
        <ele>132</ele>
        <time>2013-07-30T18:23:10Z</time>
      </trkpt>
      <trkpt lat="48.64311" lon="2.09835">
        <ele>133</ele>
        <time>2013-07-30T18:23:14Z</time>
      </trkpt>
      <trkpt lat="48.64309" lon="2.09851">
        <ele>133</ele>
        <time>2013-07-30T18:23:18Z</time>
      </trkpt>
      <trkpt lat="48.64299" lon="2.09899">
        <ele>133</ele>
        <time>2013-07-30T18:23:28Z</time>
      </trkpt>
      <trkpt lat="48.64295" lon="2.09924">
        <ele>133</ele>
        <time>2013-07-30T18:23:34Z</time>
      </trkpt>
      <trkpt lat="48.64295" lon="2.09929">
        <ele>133</ele>
        <time>2013-07-30T18:23:36Z</time>
      </trkpt>
      <trkpt lat="48.6429" lon="2.09941">
        <ele>133</ele>
        <time>2013-07-30T18:23:40Z</time>
      </trkpt>
      <trkpt lat="48.64288" lon="2.09949">
        <ele>133</ele>
        <time>2013-07-30T18:23:42Z</time>
      </trkpt>
      <trkpt lat="48.64285" lon="2.09956">
        <ele>133</ele>
        <time>2013-07-30T18:23:44Z</time>
      </trkpt>
      <trkpt lat="48.64283" lon="2.09964">
        <ele>133</ele>
        <time>2013-07-30T18:23:46Z</time>
      </trkpt>
      <trkpt lat="48.64284" lon="2.09974">
        <ele>133</ele>
        <time>2013-07-30T18:23:50Z</time>
      </trkpt>
      <trkpt lat="48.64279" lon="2.09973">
        <ele>133</ele>
        <time>2013-07-30T18:23:54Z</time>
      </trkpt>
      <trkpt lat="48.64275" lon="2.09976">
        <ele>132</ele>
        <time>2013-07-30T18:23:56Z</time>
      </trkpt>
      <trkpt lat="48.64269" lon="2.09977">
        <ele>132</ele>
        <time>2013-07-30T18:23:58Z</time>
      </trkpt>
      <trkpt lat="48.64259" lon="2.09983">
        <ele>132</ele>
        <time>2013-07-30T18:24:02Z</time>
      </trkpt>
      <trkpt lat="48.64248" lon="2.09987">
        <ele>128</ele>
        <time>2013-07-30T18:24:06Z</time>
      </trkpt>
      <trkpt lat="48.64218" lon="2.10004">
        <ele>127</ele>
        <time>2013-07-30T18:24:18Z</time>
      </trkpt>
      <trkpt lat="48.64171" lon="2.10023">
        <ele>125</ele>
        <time>2013-07-30T18:24:36Z</time>
      </trkpt>
      <trkpt lat="48.64153" lon="2.10041">
        <ele>121</ele>
        <time>2013-07-30T18:24:44Z</time>
      </trkpt>
      <trkpt lat="48.64177" lon="2.10073">
        <ele>125</ele>
        <time>2013-07-30T18:25:00Z</time>
      </trkpt>
      <trkpt lat="48.64179" lon="2.10078">
        <ele>125</ele>
        <time>2013-07-30T18:25:02Z</time>
      </trkpt>
      <trkpt lat="48.64178" lon="2.10089">
        <ele>127</ele>
        <time>2013-07-30T18:25:06Z</time>
      </trkpt>
      <trkpt lat="48.64181" lon="2.10093">
        <ele>128</ele>
        <time>2013-07-30T18:25:08Z</time>
      </trkpt>
      <trkpt lat="48.64191" lon="2.10101">
        <ele>129</ele>
        <time>2013-07-30T18:25:14Z</time>
      </trkpt>
      <trkpt lat="48.64197" lon="2.10103">
        <ele>130</ele>
        <time>2013-07-30T18:25:18Z</time>
      </trkpt>
      <trkpt lat="48.64221" lon="2.10141">
        <ele>133</ele>
        <time>2013-07-30T18:25:40Z</time>
      </trkpt>
      <trkpt lat="48.64237" lon="2.10154">
        <ele>136</ele>
        <time>2013-07-30T18:25:48Z</time>
      </trkpt>
      <trkpt lat="48.64251" lon="2.1017">
        <ele>140</ele>
        <time>2013-07-30T18:25:56Z</time>
      </trkpt>
      <trkpt lat="48.64292" lon="2.10178">
        <ele>143</ele>
        <time>2013-07-30T18:26:14Z</time>
      </trkpt>
      <trkpt lat="48.64309" lon="2.10183">
        <ele>144</ele>
        <time>2013-07-30T18:26:18Z</time>
      </trkpt>
      <trkpt lat="48.64313" lon="2.10186">
        <ele>144</ele>
        <time>2013-07-30T18:26:20Z</time>
      </trkpt>
      <trkpt lat="48.64329" lon="2.10186">
        <ele>144</ele>
        <time>2013-07-30T18:26:26Z</time>
      </trkpt>
      <trkpt lat="48.64337" lon="2.10191">
        <ele>149</ele>
        <time>2013-07-30T18:26:30Z</time>
      </trkpt>
      <trkpt lat="48.64342" lon="2.1019">
        <ele>149</ele>
        <time>2013-07-30T18:26:34Z</time>
      </trkpt>
      <trkpt lat="48.64352" lon="2.10201">
        <ele>150</ele>
        <time>2013-07-30T18:26:44Z</time>
      </trkpt>
      <trkpt lat="48.64384" lon="2.10207">
        <ele>152</ele>
        <time>2013-07-30T18:27:02Z</time>
      </trkpt>
      <trkpt lat="48.64404" lon="2.10224">
        <ele>153</ele>
        <time>2013-07-30T18:27:16Z</time>
      </trkpt>
      <trkpt lat="48.6441" lon="2.1023">
        <ele>154</ele>
        <time>2013-07-30T18:27:20Z</time>
      </trkpt>
      <trkpt lat="48.64417" lon="2.10233">
        <ele>155</ele>
        <time>2013-07-30T18:27:24Z</time>
      </trkpt>
      <trkpt lat="48.64429" lon="2.10243">
        <ele>159</ele>
        <time>2013-07-30T18:27:30Z</time>
      </trkpt>
      <trkpt lat="48.64453" lon="2.10251">
        <ele>162</ele>
        <time>2013-07-30T18:27:40Z</time>
      </trkpt>
      <trkpt lat="48.6448" lon="2.10255">
        <ele>164</ele>
        <time>2013-07-30T18:27:50Z</time>
      </trkpt>
      <trkpt lat="48.64486" lon="2.10261">
        <ele>164</ele>
        <time>2013-07-30T18:27:54Z</time>
      </trkpt>
      <trkpt lat="48.64514" lon="2.10276">
        <ele>166</ele>
        <time>2013-07-30T18:28:04Z</time>
      </trkpt>
      <trkpt lat="48.6455" lon="2.1029">
        <ele>167</ele>
        <time>2013-07-30T18:28:16Z</time>
      </trkpt>
      <trkpt lat="48.64592" lon="2.10313">
        <ele>168</ele>
        <time>2013-07-30T18:28:30Z</time>
      </trkpt>
      <trkpt lat="48.64623" lon="2.10324">
        <ele>168</ele>
        <time>2013-07-30T18:28:40Z</time>
      </trkpt>
      <trkpt lat="48.64654" lon="2.10343">
        <ele>169</ele>
        <time>2013-07-30T18:28:50Z</time>
      </trkpt>
      <trkpt lat="48.64696" lon="2.10359">
        <ele>169</ele>
        <time>2013-07-30T18:29:04Z</time>
      </trkpt>
      <trkpt lat="48.64723" lon="2.10373">
        <ele>169</ele>
        <time>2013-07-30T18:29:14Z</time>
      </trkpt>
      <trkpt lat="48.64756" lon="2.1038">
        <ele>170</ele>
        <time>2013-07-30T18:29:26Z</time>
      </trkpt>
      <trkpt lat="48.64777" lon="2.1039">
        <ele>171</ele>
        <time>2013-07-30T18:29:34Z</time>
      </trkpt>
      <trkpt lat="48.64788" lon="2.10399">
        <ele>171</ele>
        <time>2013-07-30T18:29:38Z</time>
      </trkpt>
      <trkpt lat="48.6479" lon="2.10406">
        <ele>171</ele>
        <time>2013-07-30T18:29:40Z</time>
      </trkpt>
      <trkpt lat="48.64784" lon="2.10432">
        <ele>171</ele>
        <time>2013-07-30T18:29:46Z</time>
      </trkpt>
      <trkpt lat="48.6478" lon="2.1044">
        <ele>171</ele>
        <time>2013-07-30T18:29:48Z</time>
      </trkpt>
      <trkpt lat="48.64752" lon="2.10501">
        <ele>171</ele>
        <time>2013-07-30T18:30:04Z</time>
      </trkpt>
      <trkpt lat="48.6475" lon="2.10509">
        <ele>171</ele>
        <time>2013-07-30T18:30:06Z</time>
      </trkpt>
      <trkpt lat="48.6475" lon="2.10516">
        <ele>171</ele>
        <time>2013-07-30T18:30:08Z</time>
      </trkpt>
      <trkpt lat="48.64751" lon="2.10523">
        <ele>171</ele>
        <time>2013-07-30T18:30:10Z</time>
      </trkpt>
      <trkpt lat="48.6476" lon="2.1054">
        <ele>171</ele>
        <time>2013-07-30T18:30:16Z</time>
      </trkpt>
      <trkpt lat="48.6477" lon="2.10552">
        <ele>171</ele>
        <time>2013-07-30T18:30:22Z</time>
      </trkpt>
    </trkseg>
  </trk>
</gpx>